<?xml version="1.0" encoding="UTF-8" standalone="no" ?>
<gpx xmlns="http://www.topografix.com/GPX/1/1" xmlns:xsi="http://www.w3.org/2001/XMLSchema-instance" xsi:schemaLocation="http://www.topografix.com/GPX/1/1 http://www.topografix.com/GPX/1/1/gpx.xsd" version="1.1" creator="VisuGPX - https://www.visugpx.com">
  <metadata>
    <name>aynac iut vtt</name>
    <desc><![CDATA[Total: 15.9km]]></desc>
  </metadata>
  <trk>
    <name><![CDATA[2021-10-06 15:54:03]]></name>
    <desc><![CDATA[Total: 15.9km]]></desc>
    <trkseg>
      <trkpt lat="44.61502" lon="2.00793">
        <ele>299.11</ele>
        <time>2021-10-06T12:07:29Z</time>
      </trkpt>
      <trkpt lat="44.61503" lon="2.00777">
        <ele>299.11</ele>
        <time>2021-10-06T12:07:36Z</time>
      </trkpt>
      <trkpt lat="44.61503" lon="2.0077">
        <ele>299.11</ele>
        <time>2021-10-06T12:07:40Z</time>
      </trkpt>
      <trkpt lat="44.61505" lon="2.00735">
        <ele>299.11</ele>
        <time>2021-10-06T12:07:52Z</time>
      </trkpt>
      <trkpt lat="44.61508" lon="2.00696">
        <ele>299.59</ele>
        <time>2021-10-06T12:08:04Z</time>
      </trkpt>
      <trkpt lat="44.61508" lon="2.00693">
        <ele>299.59</ele>
        <time>2021-10-06T12:08:05Z</time>
      </trkpt>
      <trkpt lat="44.61508" lon="2.0069">
        <ele>299.59</ele>
        <time>2021-10-06T12:08:06Z</time>
      </trkpt>
      <trkpt lat="44.61509" lon="2.00687">
        <ele>299.59</ele>
        <time>2021-10-06T12:08:07Z</time>
      </trkpt>
      <trkpt lat="44.61511" lon="2.00684">
        <ele>299.59</ele>
        <time>2021-10-06T12:08:08Z</time>
      </trkpt>
      <trkpt lat="44.61522" lon="2.00656">
        <ele>300.07</ele>
        <time>2021-10-06T12:08:19Z</time>
      </trkpt>
      <trkpt lat="44.61528" lon="2.00621">
        <ele>300.07</ele>
        <time>2021-10-06T12:08:31Z</time>
      </trkpt>
      <trkpt lat="44.61537" lon="2.0056">
        <ele>300.07</ele>
        <time>2021-10-06T12:08:46Z</time>
      </trkpt>
      <trkpt lat="44.61539" lon="2.00486">
        <ele>301.51</ele>
        <time>2021-10-06T12:09:04Z</time>
      </trkpt>
      <trkpt lat="44.61536" lon="2.00447">
        <ele>301.51</ele>
        <time>2021-10-06T12:09:15Z</time>
      </trkpt>
      <trkpt lat="44.61534" lon="2.00445">
        <ele>301.51</ele>
        <time>2021-10-06T12:09:16Z</time>
      </trkpt>
      <trkpt lat="44.61532" lon="2.00443">
        <ele>301.51</ele>
        <time>2021-10-06T12:09:17Z</time>
      </trkpt>
      <trkpt lat="44.6153" lon="2.00443">
        <ele>301.51</ele>
        <time>2021-10-06T12:09:18Z</time>
      </trkpt>
      <trkpt lat="44.61527" lon="2.00444">
        <ele>301.51</ele>
        <time>2021-10-06T12:09:19Z</time>
      </trkpt>
      <trkpt lat="44.61525" lon="2.00445">
        <ele>301.51</ele>
        <time>2021-10-06T12:09:20Z</time>
      </trkpt>
      <trkpt lat="44.61523" lon="2.00445">
        <ele>301.51</ele>
        <time>2021-10-06T12:09:21Z</time>
      </trkpt>
      <trkpt lat="44.61521" lon="2.00444">
        <ele>301.51</ele>
        <time>2021-10-06T12:09:22Z</time>
      </trkpt>
      <trkpt lat="44.61519" lon="2.00443">
        <ele>301.51</ele>
        <time>2021-10-06T12:09:23Z</time>
      </trkpt>
      <trkpt lat="44.61496" lon="2.00436">
        <ele>299.59</ele>
        <time>2021-10-06T12:09:37Z</time>
      </trkpt>
      <trkpt lat="44.61472" lon="2.00429">
        <ele>298.63</ele>
        <time>2021-10-06T12:09:51Z</time>
      </trkpt>
      <trkpt lat="44.61466" lon="2.00427">
        <ele>298.15</ele>
        <time>2021-10-06T12:10:03Z</time>
      </trkpt>
      <trkpt lat="44.61463" lon="2.00425">
        <ele>298.15</ele>
        <time>2021-10-06T12:10:22Z</time>
      </trkpt>
      <trkpt lat="44.61458" lon="2.00419">
        <ele>298.15</ele>
        <time>2021-10-06T12:10:25Z</time>
      </trkpt>
      <trkpt lat="44.61456" lon="2.00418">
        <ele>298.15</ele>
        <time>2021-10-06T12:10:26Z</time>
      </trkpt>
      <trkpt lat="44.61453" lon="2.00417">
        <ele>298.15</ele>
        <time>2021-10-06T12:10:27Z</time>
      </trkpt>
      <trkpt lat="44.61451" lon="2.00416">
        <ele>298.15</ele>
        <time>2021-10-06T12:10:28Z</time>
      </trkpt>
      <trkpt lat="44.61448" lon="2.00415">
        <ele>298.15</ele>
        <time>2021-10-06T12:10:29Z</time>
      </trkpt>
      <trkpt lat="44.61446" lon="2.00414">
        <ele>298.15</ele>
        <time>2021-10-06T12:10:30Z</time>
      </trkpt>
      <trkpt lat="44.6143" lon="2.00405">
        <ele>297.67</ele>
        <time>2021-10-06T12:10:38Z</time>
      </trkpt>
      <trkpt lat="44.61429" lon="2.00402">
        <ele>297.67</ele>
        <time>2021-10-06T12:10:39Z</time>
      </trkpt>
      <trkpt lat="44.61407" lon="2.0035">
        <ele>298.15</ele>
        <time>2021-10-06T12:10:54Z</time>
      </trkpt>
      <trkpt lat="44.61383" lon="2.00318">
        <ele>298.15</ele>
        <time>2021-10-06T12:11:06Z</time>
      </trkpt>
      <trkpt lat="44.61354" lon="2.00286">
        <ele>298.15</ele>
        <time>2021-10-06T12:11:19Z</time>
      </trkpt>
      <trkpt lat="44.61324" lon="2.00264">
        <ele>298.15</ele>
        <time>2021-10-06T12:11:31Z</time>
      </trkpt>
      <trkpt lat="44.61308" lon="2.00256">
        <ele>299.11</ele>
        <time>2021-10-06T12:11:37Z</time>
      </trkpt>
      <trkpt lat="44.61274" lon="2.00251">
        <ele>301.03</ele>
        <time>2021-10-06T12:11:51Z</time>
      </trkpt>
      <trkpt lat="44.61246" lon="2.00239">
        <ele>301.99</ele>
        <time>2021-10-06T12:12:02Z</time>
      </trkpt>
      <trkpt lat="44.61214" lon="2.00235">
        <ele>302.47</ele>
        <time>2021-10-06T12:12:15Z</time>
      </trkpt>
      <trkpt lat="44.61195" lon="2.00231">
        <ele>301.03</ele>
        <time>2021-10-06T12:12:23Z</time>
      </trkpt>
      <trkpt lat="44.61157" lon="2.00213">
        <ele>300.07</ele>
        <time>2021-10-06T12:12:35Z</time>
      </trkpt>
      <trkpt lat="44.61146" lon="2.00198">
        <ele>300.07</ele>
        <time>2021-10-06T12:12:41Z</time>
      </trkpt>
      <trkpt lat="44.61147" lon="2.00195">
        <ele>300.07</ele>
        <time>2021-10-06T12:12:42Z</time>
      </trkpt>
      <trkpt lat="44.61147" lon="2.00193">
        <ele>300.07</ele>
        <time>2021-10-06T12:12:43Z</time>
      </trkpt>
      <trkpt lat="44.61156" lon="2.00172">
        <ele>300.07</ele>
        <time>2021-10-06T12:12:57Z</time>
      </trkpt>
      <trkpt lat="44.61156" lon="2.00171">
        <ele>301.51</ele>
        <time>2021-10-06T12:13:22Z</time>
      </trkpt>
      <trkpt lat="44.61155" lon="2.00169">
        <ele>301.51</ele>
        <time>2021-10-06T12:13:45Z</time>
      </trkpt>
      <trkpt lat="44.61158" lon="2.00168">
        <ele>301.51</ele>
        <time>2021-10-06T12:14:12Z</time>
      </trkpt>
      <trkpt lat="44.61167" lon="2.00156">
        <ele>301.51</ele>
        <time>2021-10-06T12:14:24Z</time>
      </trkpt>
      <trkpt lat="44.6117" lon="2.00145">
        <ele>301.51</ele>
        <time>2021-10-06T12:14:29Z</time>
      </trkpt>
      <trkpt lat="44.61168" lon="2.00142">
        <ele>301.51</ele>
        <time>2021-10-06T12:14:30Z</time>
      </trkpt>
      <trkpt lat="44.61167" lon="2.00142">
        <ele>301.51</ele>
        <time>2021-10-06T12:14:31Z</time>
      </trkpt>
      <trkpt lat="44.61151" lon="2.00127">
        <ele>301.99</ele>
        <time>2021-10-06T12:14:40Z</time>
      </trkpt>
      <trkpt lat="44.6114" lon="2.00097">
        <ele>303.43</ele>
        <time>2021-10-06T12:14:53Z</time>
      </trkpt>
      <trkpt lat="44.6114" lon="2.0006">
        <ele>305.36</ele>
        <time>2021-10-06T12:15:06Z</time>
      </trkpt>
      <trkpt lat="44.61138" lon="2.00042">
        <ele>307.76</ele>
        <time>2021-10-06T12:15:14Z</time>
      </trkpt>
      <trkpt lat="44.61131" lon="2.00005">
        <ele>310.64</ele>
        <time>2021-10-06T12:15:29Z</time>
      </trkpt>
      <trkpt lat="44.61128" lon="1.99997">
        <ele>311.12</ele>
        <time>2021-10-06T12:15:33Z</time>
      </trkpt>
      <trkpt lat="44.61113" lon="1.99979">
        <ele>314.01</ele>
        <time>2021-10-06T12:15:46Z</time>
      </trkpt>
      <trkpt lat="44.61107" lon="1.99975">
        <ele>314.97</ele>
        <time>2021-10-06T12:15:51Z</time>
      </trkpt>
      <trkpt lat="44.611" lon="1.99979">
        <ele>315.45</ele>
        <time>2021-10-06T12:15:56Z</time>
      </trkpt>
      <trkpt lat="44.61095" lon="1.99981">
        <ele>316.41</ele>
        <time>2021-10-06T12:16:00Z</time>
      </trkpt>
      <trkpt lat="44.61085" lon="1.99981">
        <ele>316.89</ele>
        <time>2021-10-06T12:16:07Z</time>
      </trkpt>
      <trkpt lat="44.61082" lon="1.9998">
        <ele>316.89</ele>
        <time>2021-10-06T12:16:10Z</time>
      </trkpt>
      <trkpt lat="44.6107" lon="1.9998">
        <ele>317.85</ele>
        <time>2021-10-06T12:16:26Z</time>
      </trkpt>
      <trkpt lat="44.6107" lon="1.99979">
        <ele>318.33</ele>
        <time>2021-10-06T12:16:44Z</time>
      </trkpt>
      <trkpt lat="44.61069" lon="1.9998">
        <ele>318.33</ele>
        <time>2021-10-06T12:17:05Z</time>
      </trkpt>
      <trkpt lat="44.61069" lon="1.99981">
        <ele>318.33</ele>
        <time>2021-10-06T12:17:14Z</time>
      </trkpt>
      <trkpt lat="44.61067" lon="1.9998">
        <ele>318.33</ele>
        <time>2021-10-06T12:17:16Z</time>
      </trkpt>
      <trkpt lat="44.61056" lon="1.99982">
        <ele>318.33</ele>
        <time>2021-10-06T12:17:23Z</time>
      </trkpt>
      <trkpt lat="44.61027" lon="1.99976">
        <ele>318.81</ele>
        <time>2021-10-06T12:17:37Z</time>
      </trkpt>
      <trkpt lat="44.60995" lon="1.99971">
        <ele>319.3</ele>
        <time>2021-10-06T12:17:51Z</time>
      </trkpt>
      <trkpt lat="44.60991" lon="1.9996">
        <ele>317.85</ele>
        <time>2021-10-06T12:17:57Z</time>
      </trkpt>
      <trkpt lat="44.6099" lon="1.99954">
        <ele>317.85</ele>
        <time>2021-10-06T12:18:00Z</time>
      </trkpt>
      <trkpt lat="44.60983" lon="1.99948">
        <ele>317.85</ele>
        <time>2021-10-06T12:18:06Z</time>
      </trkpt>
      <trkpt lat="44.60981" lon="1.99936">
        <ele>317.37</ele>
        <time>2021-10-06T12:18:12Z</time>
      </trkpt>
      <trkpt lat="44.60979" lon="1.99919">
        <ele>316.89</ele>
        <time>2021-10-06T12:18:20Z</time>
      </trkpt>
      <trkpt lat="44.60972" lon="1.99912">
        <ele>316.89</ele>
        <time>2021-10-06T12:18:24Z</time>
      </trkpt>
      <trkpt lat="44.6096" lon="1.99905">
        <ele>315.45</ele>
        <time>2021-10-06T12:18:28Z</time>
      </trkpt>
      <trkpt lat="44.60914" lon="1.99886">
        <ele>312.09</ele>
        <time>2021-10-06T12:18:37Z</time>
      </trkpt>
      <trkpt lat="44.60909" lon="1.99887">
        <ele>311.6</ele>
        <time>2021-10-06T12:18:38Z</time>
      </trkpt>
      <trkpt lat="44.609" lon="1.99889">
        <ele>311.12</ele>
        <time>2021-10-06T12:18:40Z</time>
      </trkpt>
      <trkpt lat="44.60892" lon="1.99889">
        <ele>311.12</ele>
        <time>2021-10-06T12:18:42Z</time>
      </trkpt>
      <trkpt lat="44.60874" lon="1.99879">
        <ele>309.2</ele>
        <time>2021-10-06T12:18:51Z</time>
      </trkpt>
      <trkpt lat="44.60856" lon="1.99838">
        <ele>306.8</ele>
        <time>2021-10-06T12:18:58Z</time>
      </trkpt>
      <trkpt lat="44.60854" lon="1.9982">
        <ele>305.84</ele>
        <time>2021-10-06T12:19:00Z</time>
      </trkpt>
      <trkpt lat="44.60848" lon="1.998">
        <ele>303.91</ele>
        <time>2021-10-06T12:19:03Z</time>
      </trkpt>
      <trkpt lat="44.60845" lon="1.99777">
        <ele>300.07</ele>
        <time>2021-10-06T12:19:07Z</time>
      </trkpt>
      <trkpt lat="44.60843" lon="1.9977">
        <ele>300.07</ele>
        <time>2021-10-06T12:19:08Z</time>
      </trkpt>
      <trkpt lat="44.60792" lon="1.99709">
        <ele>294.78</ele>
        <time>2021-10-06T12:19:17Z</time>
      </trkpt>
      <trkpt lat="44.60779" lon="1.99698">
        <ele>293.82</ele>
        <time>2021-10-06T12:19:19Z</time>
      </trkpt>
      <trkpt lat="44.6076" lon="1.99682">
        <ele>292.86</ele>
        <time>2021-10-06T12:19:22Z</time>
      </trkpt>
      <trkpt lat="44.60752" lon="1.99673">
        <ele>291.9</ele>
        <time>2021-10-06T12:19:24Z</time>
      </trkpt>
      <trkpt lat="44.60753" lon="1.99643">
        <ele>291.9</ele>
        <time>2021-10-06T12:19:32Z</time>
      </trkpt>
      <trkpt lat="44.60772" lon="1.99623">
        <ele>293.82</ele>
        <time>2021-10-06T12:19:43Z</time>
      </trkpt>
      <trkpt lat="44.60776" lon="1.99621">
        <ele>294.3</ele>
        <time>2021-10-06T12:19:45Z</time>
      </trkpt>
      <trkpt lat="44.6078" lon="1.99609">
        <ele>295.26</ele>
        <time>2021-10-06T12:19:50Z</time>
      </trkpt>
      <trkpt lat="44.60774" lon="1.99581">
        <ele>297.18</ele>
        <time>2021-10-06T12:20:05Z</time>
      </trkpt>
      <trkpt lat="44.60757" lon="1.99556">
        <ele>299.11</ele>
        <time>2021-10-06T12:20:20Z</time>
      </trkpt>
      <trkpt lat="44.60743" lon="1.99529">
        <ele>299.59</ele>
        <time>2021-10-06T12:20:34Z</time>
      </trkpt>
      <trkpt lat="44.60723" lon="1.99509">
        <ele>298.63</ele>
        <time>2021-10-06T12:20:47Z</time>
      </trkpt>
      <trkpt lat="44.60714" lon="1.99495">
        <ele>298.63</ele>
        <time>2021-10-06T12:21:01Z</time>
      </trkpt>
      <trkpt lat="44.60709" lon="1.99477">
        <ele>300.07</ele>
        <time>2021-10-06T12:21:12Z</time>
      </trkpt>
      <trkpt lat="44.60709" lon="1.99448">
        <ele>302.47</ele>
        <time>2021-10-06T12:21:27Z</time>
      </trkpt>
      <trkpt lat="44.60715" lon="1.9942">
        <ele>304.39</ele>
        <time>2021-10-06T12:21:40Z</time>
      </trkpt>
      <trkpt lat="44.60718" lon="1.99404">
        <ele>305.36</ele>
        <time>2021-10-06T12:21:48Z</time>
      </trkpt>
      <trkpt lat="44.60712" lon="1.99391">
        <ele>305.36</ele>
        <time>2021-10-06T12:22:02Z</time>
      </trkpt>
      <trkpt lat="44.6071" lon="1.99387">
        <ele>305.36</ele>
        <time>2021-10-06T12:22:18Z</time>
      </trkpt>
      <trkpt lat="44.60698" lon="1.99381">
        <ele>305.36</ele>
        <time>2021-10-06T12:22:29Z</time>
      </trkpt>
      <trkpt lat="44.60694" lon="1.99378">
        <ele>304.39</ele>
        <time>2021-10-06T12:22:31Z</time>
      </trkpt>
      <trkpt lat="44.60673" lon="1.99365">
        <ele>303.91</ele>
        <time>2021-10-06T12:22:40Z</time>
      </trkpt>
      <trkpt lat="44.60675" lon="1.99347">
        <ele>303.91</ele>
        <time>2021-10-06T12:22:47Z</time>
      </trkpt>
      <trkpt lat="44.60697" lon="1.99304">
        <ele>302.47</ele>
        <time>2021-10-06T12:23:01Z</time>
      </trkpt>
      <trkpt lat="44.60721" lon="1.99264">
        <ele>301.03</ele>
        <time>2021-10-06T12:23:13Z</time>
      </trkpt>
      <trkpt lat="44.60722" lon="1.99222">
        <ele>299.59</ele>
        <time>2021-10-06T12:23:20Z</time>
      </trkpt>
      <trkpt lat="44.60724" lon="1.99204">
        <ele>299.59</ele>
        <time>2021-10-06T12:23:23Z</time>
      </trkpt>
      <trkpt lat="44.60732" lon="1.99147">
        <ele>299.11</ele>
        <time>2021-10-06T12:23:33Z</time>
      </trkpt>
      <trkpt lat="44.60734" lon="1.99085">
        <ele>300.07</ele>
        <time>2021-10-06T12:23:44Z</time>
      </trkpt>
      <trkpt lat="44.60743" lon="1.9904">
        <ele>300.07</ele>
        <time>2021-10-06T12:23:53Z</time>
      </trkpt>
      <trkpt lat="44.6073" lon="1.98994">
        <ele>301.99</ele>
        <time>2021-10-06T12:24:03Z</time>
      </trkpt>
      <trkpt lat="44.60717" lon="1.98947">
        <ele>302.95</ele>
        <time>2021-10-06T12:24:14Z</time>
      </trkpt>
      <trkpt lat="44.60696" lon="1.98901">
        <ele>303.43</ele>
        <time>2021-10-06T12:24:26Z</time>
      </trkpt>
      <trkpt lat="44.60686" lon="1.9888">
        <ele>303.43</ele>
        <time>2021-10-06T12:24:41Z</time>
      </trkpt>
      <trkpt lat="44.60685" lon="1.98877">
        <ele>303.43</ele>
        <time>2021-10-06T12:25:00Z</time>
      </trkpt>
      <trkpt lat="44.60674" lon="1.98847">
        <ele>303.43</ele>
        <time>2021-10-06T12:25:13Z</time>
      </trkpt>
      <trkpt lat="44.6067" lon="1.98836">
        <ele>301.99</ele>
        <time>2021-10-06T12:25:16Z</time>
      </trkpt>
      <trkpt lat="44.60646" lon="1.98793">
        <ele>301.03</ele>
        <time>2021-10-06T12:25:28Z</time>
      </trkpt>
      <trkpt lat="44.60615" lon="1.98765">
        <ele>301.03</ele>
        <time>2021-10-06T12:25:40Z</time>
      </trkpt>
      <trkpt lat="44.60592" lon="1.98726">
        <ele>300.55</ele>
        <time>2021-10-06T12:25:51Z</time>
      </trkpt>
      <trkpt lat="44.60572" lon="1.98707">
        <ele>300.55</ele>
        <time>2021-10-06T12:26:00Z</time>
      </trkpt>
      <trkpt lat="44.60569" lon="1.98705">
        <ele>300.55</ele>
        <time>2021-10-06T12:26:01Z</time>
      </trkpt>
      <trkpt lat="44.60554" lon="1.98681">
        <ele>298.63</ele>
        <time>2021-10-06T12:26:07Z</time>
      </trkpt>
      <trkpt lat="44.6052" lon="1.98633">
        <ele>297.18</ele>
        <time>2021-10-06T12:26:16Z</time>
      </trkpt>
      <trkpt lat="44.60494" lon="1.98586">
        <ele>297.18</ele>
        <time>2021-10-06T12:26:28Z</time>
      </trkpt>
      <trkpt lat="44.60473" lon="1.9856">
        <ele>298.63</ele>
        <time>2021-10-06T12:26:38Z</time>
      </trkpt>
      <trkpt lat="44.6046" lon="1.98555">
        <ele>299.59</ele>
        <time>2021-10-06T12:26:44Z</time>
      </trkpt>
      <trkpt lat="44.60449" lon="1.98563">
        <ele>301.51</ele>
        <time>2021-10-06T12:26:50Z</time>
      </trkpt>
      <trkpt lat="44.60435" lon="1.98545">
        <ele>301.51</ele>
        <time>2021-10-06T12:27:04Z</time>
      </trkpt>
      <trkpt lat="44.60428" lon="1.98528">
        <ele>301.99</ele>
        <time>2021-10-06T12:27:15Z</time>
      </trkpt>
      <trkpt lat="44.60426" lon="1.98516">
        <ele>301.99</ele>
        <time>2021-10-06T12:27:21Z</time>
      </trkpt>
      <trkpt lat="44.6042" lon="1.98492">
        <ele>301.99</ele>
        <time>2021-10-06T12:27:38Z</time>
      </trkpt>
      <trkpt lat="44.6042" lon="1.98491">
        <ele>301.99</ele>
        <time>2021-10-06T12:28:02Z</time>
      </trkpt>
      <trkpt lat="44.60419" lon="1.98483">
        <ele>300.55</ele>
        <time>2021-10-06T12:28:06Z</time>
      </trkpt>
      <trkpt lat="44.60418" lon="1.9848">
        <ele>300.55</ele>
        <time>2021-10-06T12:28:07Z</time>
      </trkpt>
      <trkpt lat="44.60408" lon="1.98449">
        <ele>299.59</ele>
        <time>2021-10-06T12:28:14Z</time>
      </trkpt>
      <trkpt lat="44.60406" lon="1.98442">
        <ele>298.63</ele>
        <time>2021-10-06T12:28:15Z</time>
      </trkpt>
      <trkpt lat="44.60404" lon="1.98436">
        <ele>298.63</ele>
        <time>2021-10-06T12:28:16Z</time>
      </trkpt>
      <trkpt lat="44.60402" lon="1.98428">
        <ele>298.63</ele>
        <time>2021-10-06T12:28:17Z</time>
      </trkpt>
      <trkpt lat="44.604" lon="1.98421">
        <ele>298.63</ele>
        <time>2021-10-06T12:28:18Z</time>
      </trkpt>
      <trkpt lat="44.60398" lon="1.98414">
        <ele>298.63</ele>
        <time>2021-10-06T12:28:19Z</time>
      </trkpt>
      <trkpt lat="44.60395" lon="1.98408">
        <ele>298.63</ele>
        <time>2021-10-06T12:28:20Z</time>
      </trkpt>
      <trkpt lat="44.60381" lon="1.98373">
        <ele>297.18</ele>
        <time>2021-10-06T12:28:25Z</time>
      </trkpt>
      <trkpt lat="44.60375" lon="1.9836">
        <ele>297.18</ele>
        <time>2021-10-06T12:28:27Z</time>
      </trkpt>
      <trkpt lat="44.60361" lon="1.98328">
        <ele>297.18</ele>
        <time>2021-10-06T12:28:32Z</time>
      </trkpt>
      <trkpt lat="44.60358" lon="1.98322">
        <ele>297.18</ele>
        <time>2021-10-06T12:28:33Z</time>
      </trkpt>
      <trkpt lat="44.60355" lon="1.98316">
        <ele>297.18</ele>
        <time>2021-10-06T12:28:34Z</time>
      </trkpt>
      <trkpt lat="44.60327" lon="1.98257">
        <ele>294.3</ele>
        <time>2021-10-06T12:28:42Z</time>
      </trkpt>
      <trkpt lat="44.60317" lon="1.98239">
        <ele>292.86</ele>
        <time>2021-10-06T12:28:44Z</time>
      </trkpt>
      <trkpt lat="44.60312" lon="1.9823">
        <ele>292.38</ele>
        <time>2021-10-06T12:28:45Z</time>
      </trkpt>
      <trkpt lat="44.60293" lon="1.98192">
        <ele>290.46</ele>
        <time>2021-10-06T12:28:49Z</time>
      </trkpt>
      <trkpt lat="44.60273" lon="1.98145">
        <ele>289.49</ele>
        <time>2021-10-06T12:28:54Z</time>
      </trkpt>
      <trkpt lat="44.6025" lon="1.98111">
        <ele>289.01</ele>
        <time>2021-10-06T12:28:59Z</time>
      </trkpt>
      <trkpt lat="44.60218" lon="1.98075">
        <ele>289.01</ele>
        <time>2021-10-06T12:29:06Z</time>
      </trkpt>
      <trkpt lat="44.60213" lon="1.98072">
        <ele>289.49</ele>
        <time>2021-10-06T12:29:07Z</time>
      </trkpt>
      <trkpt lat="44.60207" lon="1.9807">
        <ele>288.53</ele>
        <time>2021-10-06T12:29:08Z</time>
      </trkpt>
      <trkpt lat="44.602" lon="1.9807">
        <ele>288.05</ele>
        <time>2021-10-06T12:29:09Z</time>
      </trkpt>
      <trkpt lat="44.60193" lon="1.98071">
        <ele>288.05</ele>
        <time>2021-10-06T12:29:10Z</time>
      </trkpt>
      <trkpt lat="44.60187" lon="1.98073">
        <ele>288.05</ele>
        <time>2021-10-06T12:29:11Z</time>
      </trkpt>
      <trkpt lat="44.6018" lon="1.98075">
        <ele>287.57</ele>
        <time>2021-10-06T12:29:12Z</time>
      </trkpt>
      <trkpt lat="44.60173" lon="1.98078">
        <ele>287.09</ele>
        <time>2021-10-06T12:29:13Z</time>
      </trkpt>
      <trkpt lat="44.60159" lon="1.98082">
        <ele>286.13</ele>
        <time>2021-10-06T12:29:15Z</time>
      </trkpt>
      <trkpt lat="44.60152" lon="1.98082">
        <ele>285.65</ele>
        <time>2021-10-06T12:29:16Z</time>
      </trkpt>
      <trkpt lat="44.60145" lon="1.98082">
        <ele>285.65</ele>
        <time>2021-10-06T12:29:17Z</time>
      </trkpt>
      <trkpt lat="44.60138" lon="1.98082">
        <ele>284.69</ele>
        <time>2021-10-06T12:29:18Z</time>
      </trkpt>
      <trkpt lat="44.60131" lon="1.98082">
        <ele>284.21</ele>
        <time>2021-10-06T12:29:19Z</time>
      </trkpt>
      <trkpt lat="44.60121" lon="1.98082">
        <ele>283.73</ele>
        <time>2021-10-06T12:29:21Z</time>
      </trkpt>
      <trkpt lat="44.60117" lon="1.98083">
        <ele>283.73</ele>
        <time>2021-10-06T12:29:22Z</time>
      </trkpt>
      <trkpt lat="44.60114" lon="1.98085">
        <ele>283.73</ele>
        <time>2021-10-06T12:29:23Z</time>
      </trkpt>
      <trkpt lat="44.60111" lon="1.98086">
        <ele>283.73</ele>
        <time>2021-10-06T12:29:24Z</time>
      </trkpt>
      <trkpt lat="44.6011" lon="1.98088">
        <ele>283.73</ele>
        <time>2021-10-06T12:29:25Z</time>
      </trkpt>
      <trkpt lat="44.60108" lon="1.98089">
        <ele>283.73</ele>
        <time>2021-10-06T12:29:26Z</time>
      </trkpt>
      <trkpt lat="44.60107" lon="1.9809">
        <ele>283.73</ele>
        <time>2021-10-06T12:29:27Z</time>
      </trkpt>
      <trkpt lat="44.60106" lon="1.98089">
        <ele>283.73</ele>
        <time>2021-10-06T12:29:28Z</time>
      </trkpt>
      <trkpt lat="44.60105" lon="1.98086">
        <ele>283.73</ele>
        <time>2021-10-06T12:29:38Z</time>
      </trkpt>
      <trkpt lat="44.60104" lon="1.98086">
        <ele>283.73</ele>
        <time>2021-10-06T12:29:51Z</time>
      </trkpt>
      <trkpt lat="44.60105" lon="1.98085">
        <ele>283.73</ele>
        <time>2021-10-06T12:30:11Z</time>
      </trkpt>
      <trkpt lat="44.60106" lon="1.98083">
        <ele>283.73</ele>
        <time>2021-10-06T12:30:29Z</time>
      </trkpt>
      <trkpt lat="44.60108" lon="1.98073">
        <ele>282.28</ele>
        <time>2021-10-06T12:30:32Z</time>
      </trkpt>
      <trkpt lat="44.60107" lon="1.98068">
        <ele>281.8</ele>
        <time>2021-10-06T12:30:33Z</time>
      </trkpt>
      <trkpt lat="44.60105" lon="1.98063">
        <ele>281.8</ele>
        <time>2021-10-06T12:30:34Z</time>
      </trkpt>
      <trkpt lat="44.60105" lon="1.98058">
        <ele>280.36</ele>
        <time>2021-10-06T12:30:35Z</time>
      </trkpt>
      <trkpt lat="44.60107" lon="1.98053">
        <ele>279.88</ele>
        <time>2021-10-06T12:30:36Z</time>
      </trkpt>
      <trkpt lat="44.60109" lon="1.98048">
        <ele>279.88</ele>
        <time>2021-10-06T12:30:37Z</time>
      </trkpt>
      <trkpt lat="44.60117" lon="1.98028">
        <ele>275.56</ele>
        <time>2021-10-06T12:30:40Z</time>
      </trkpt>
      <trkpt lat="44.60119" lon="1.98021">
        <ele>275.07</ele>
        <time>2021-10-06T12:30:41Z</time>
      </trkpt>
      <trkpt lat="44.60119" lon="1.98016">
        <ele>273.63</ele>
        <time>2021-10-06T12:30:42Z</time>
      </trkpt>
      <trkpt lat="44.60116" lon="1.9801">
        <ele>272.19</ele>
        <time>2021-10-06T12:30:43Z</time>
      </trkpt>
      <trkpt lat="44.60113" lon="1.98005">
        <ele>270.75</ele>
        <time>2021-10-06T12:30:44Z</time>
      </trkpt>
      <trkpt lat="44.6011" lon="1.97999">
        <ele>269.31</ele>
        <time>2021-10-06T12:30:45Z</time>
      </trkpt>
      <trkpt lat="44.60108" lon="1.97994">
        <ele>268.35</ele>
        <time>2021-10-06T12:30:46Z</time>
      </trkpt>
      <trkpt lat="44.60105" lon="1.9799">
        <ele>266.9</ele>
        <time>2021-10-06T12:30:47Z</time>
      </trkpt>
      <trkpt lat="44.60101" lon="1.97986">
        <ele>265.94</ele>
        <time>2021-10-06T12:30:48Z</time>
      </trkpt>
      <trkpt lat="44.60097" lon="1.97982">
        <ele>265.46</ele>
        <time>2021-10-06T12:30:49Z</time>
      </trkpt>
      <trkpt lat="44.60078" lon="1.97968">
        <ele>262.58</ele>
        <time>2021-10-06T12:30:53Z</time>
      </trkpt>
      <trkpt lat="44.60073" lon="1.97963">
        <ele>262.1</ele>
        <time>2021-10-06T12:30:54Z</time>
      </trkpt>
      <trkpt lat="44.60069" lon="1.97957">
        <ele>261.62</ele>
        <time>2021-10-06T12:30:55Z</time>
      </trkpt>
      <trkpt lat="44.60058" lon="1.97939">
        <ele>260.65</ele>
        <time>2021-10-06T12:30:58Z</time>
      </trkpt>
      <trkpt lat="44.60056" lon="1.97932">
        <ele>260.17</ele>
        <time>2021-10-06T12:30:59Z</time>
      </trkpt>
      <trkpt lat="44.60054" lon="1.97925">
        <ele>259.69</ele>
        <time>2021-10-06T12:31:00Z</time>
      </trkpt>
      <trkpt lat="44.60053" lon="1.97918">
        <ele>259.21</ele>
        <time>2021-10-06T12:31:01Z</time>
      </trkpt>
      <trkpt lat="44.60052" lon="1.97911">
        <ele>258.73</ele>
        <time>2021-10-06T12:31:02Z</time>
      </trkpt>
      <trkpt lat="44.60051" lon="1.97903">
        <ele>258.25</ele>
        <time>2021-10-06T12:31:03Z</time>
      </trkpt>
      <trkpt lat="44.60051" lon="1.97896">
        <ele>257.29</ele>
        <time>2021-10-06T12:31:04Z</time>
      </trkpt>
      <trkpt lat="44.60048" lon="1.9788">
        <ele>255.37</ele>
        <time>2021-10-06T12:31:06Z</time>
      </trkpt>
      <trkpt lat="44.60046" lon="1.97859">
        <ele>252.48</ele>
        <time>2021-10-06T12:31:09Z</time>
      </trkpt>
      <trkpt lat="44.60044" lon="1.97853">
        <ele>252.48</ele>
        <time>2021-10-06T12:31:10Z</time>
      </trkpt>
      <trkpt lat="44.60041" lon="1.9784">
        <ele>249.12</ele>
        <time>2021-10-06T12:31:12Z</time>
      </trkpt>
      <trkpt lat="44.60038" lon="1.97828">
        <ele>247.68</ele>
        <time>2021-10-06T12:31:14Z</time>
      </trkpt>
      <trkpt lat="44.60036" lon="1.97822">
        <ele>246.72</ele>
        <time>2021-10-06T12:31:15Z</time>
      </trkpt>
      <trkpt lat="44.60033" lon="1.97817">
        <ele>246.23</ele>
        <time>2021-10-06T12:31:16Z</time>
      </trkpt>
      <trkpt lat="44.60031" lon="1.97813">
        <ele>245.27</ele>
        <time>2021-10-06T12:31:17Z</time>
      </trkpt>
      <trkpt lat="44.6003" lon="1.97808">
        <ele>244.31</ele>
        <time>2021-10-06T12:31:18Z</time>
      </trkpt>
      <trkpt lat="44.60027" lon="1.97797">
        <ele>243.35</ele>
        <time>2021-10-06T12:31:20Z</time>
      </trkpt>
      <trkpt lat="44.60023" lon="1.97788">
        <ele>241.91</ele>
        <time>2021-10-06T12:31:22Z</time>
      </trkpt>
      <trkpt lat="44.60019" lon="1.97785">
        <ele>241.91</ele>
        <time>2021-10-06T12:31:23Z</time>
      </trkpt>
      <trkpt lat="44.60016" lon="1.97784">
        <ele>241.43</ele>
        <time>2021-10-06T12:31:24Z</time>
      </trkpt>
      <trkpt lat="44.60012" lon="1.97782">
        <ele>240.95</ele>
        <time>2021-10-06T12:31:25Z</time>
      </trkpt>
      <trkpt lat="44.60008" lon="1.97781">
        <ele>240.95</ele>
        <time>2021-10-06T12:31:26Z</time>
      </trkpt>
      <trkpt lat="44.60005" lon="1.97778">
        <ele>240.95</ele>
        <time>2021-10-06T12:31:27Z</time>
      </trkpt>
      <trkpt lat="44.60002" lon="1.97776">
        <ele>240.47</ele>
        <time>2021-10-06T12:31:28Z</time>
      </trkpt>
      <trkpt lat="44.6" lon="1.97772">
        <ele>239.99</ele>
        <time>2021-10-06T12:31:29Z</time>
      </trkpt>
      <trkpt lat="44.59998" lon="1.97768">
        <ele>239.02</ele>
        <time>2021-10-06T12:31:30Z</time>
      </trkpt>
      <trkpt lat="44.59996" lon="1.97764">
        <ele>239.02</ele>
        <time>2021-10-06T12:31:31Z</time>
      </trkpt>
      <trkpt lat="44.59982" lon="1.97739">
        <ele>236.14</ele>
        <time>2021-10-06T12:31:38Z</time>
      </trkpt>
      <trkpt lat="44.5998" lon="1.97736">
        <ele>235.18</ele>
        <time>2021-10-06T12:31:39Z</time>
      </trkpt>
      <trkpt lat="44.59978" lon="1.97733">
        <ele>235.18</ele>
        <time>2021-10-06T12:31:40Z</time>
      </trkpt>
      <trkpt lat="44.59962" lon="1.97711">
        <ele>231.81</ele>
        <time>2021-10-06T12:31:49Z</time>
      </trkpt>
      <trkpt lat="44.5996" lon="1.9771">
        <ele>231.33</ele>
        <time>2021-10-06T12:31:50Z</time>
      </trkpt>
      <trkpt lat="44.59958" lon="1.97709">
        <ele>231.33</ele>
        <time>2021-10-06T12:31:51Z</time>
      </trkpt>
      <trkpt lat="44.59957" lon="1.97708">
        <ele>230.85</ele>
        <time>2021-10-06T12:31:52Z</time>
      </trkpt>
      <trkpt lat="44.59955" lon="1.97706">
        <ele>230.37</ele>
        <time>2021-10-06T12:31:53Z</time>
      </trkpt>
      <trkpt lat="44.59953" lon="1.97704">
        <ele>230.37</ele>
        <time>2021-10-06T12:31:54Z</time>
      </trkpt>
      <trkpt lat="44.59938" lon="1.97693">
        <ele>227.49</ele>
        <time>2021-10-06T12:32:00Z</time>
      </trkpt>
      <trkpt lat="44.59925" lon="1.97683">
        <ele>226.05</ele>
        <time>2021-10-06T12:32:06Z</time>
      </trkpt>
      <trkpt lat="44.59912" lon="1.97675">
        <ele>224.61</ele>
        <time>2021-10-06T12:32:13Z</time>
      </trkpt>
      <trkpt lat="44.59894" lon="1.97667">
        <ele>221.72</ele>
        <time>2021-10-06T12:32:23Z</time>
      </trkpt>
      <trkpt lat="44.59881" lon="1.97657">
        <ele>219.8</ele>
        <time>2021-10-06T12:32:29Z</time>
      </trkpt>
      <trkpt lat="44.59865" lon="1.97647">
        <ele>217.88</ele>
        <time>2021-10-06T12:32:39Z</time>
      </trkpt>
      <trkpt lat="44.59861" lon="1.97645">
        <ele>217.88</ele>
        <time>2021-10-06T12:32:55Z</time>
      </trkpt>
      <trkpt lat="44.5986" lon="1.97645">
        <ele>217.4</ele>
        <time>2021-10-06T12:33:17Z</time>
      </trkpt>
      <trkpt lat="44.59859" lon="1.97643">
        <ele>217.4</ele>
        <time>2021-10-06T12:33:36Z</time>
      </trkpt>
      <trkpt lat="44.59859" lon="1.97645">
        <ele>217.4</ele>
        <time>2021-10-06T12:34:02Z</time>
      </trkpt>
      <trkpt lat="44.59859" lon="1.97645">
        <ele>217.4</ele>
        <time>2021-10-06T12:34:28Z</time>
      </trkpt>
      <trkpt lat="44.59852" lon="1.97629">
        <ele>216.43</ele>
        <time>2021-10-06T12:34:50Z</time>
      </trkpt>
      <trkpt lat="44.59842" lon="1.97615">
        <ele>213.07</ele>
        <time>2021-10-06T12:34:52Z</time>
      </trkpt>
      <trkpt lat="44.59831" lon="1.97597">
        <ele>210.19</ele>
        <time>2021-10-06T12:34:54Z</time>
      </trkpt>
      <trkpt lat="44.59826" lon="1.97588">
        <ele>208.26</ele>
        <time>2021-10-06T12:34:55Z</time>
      </trkpt>
      <trkpt lat="44.59823" lon="1.97581">
        <ele>207.3</ele>
        <time>2021-10-06T12:34:56Z</time>
      </trkpt>
      <trkpt lat="44.59822" lon="1.97573">
        <ele>206.82</ele>
        <time>2021-10-06T12:34:57Z</time>
      </trkpt>
      <trkpt lat="44.59822" lon="1.97565">
        <ele>206.34</ele>
        <time>2021-10-06T12:34:58Z</time>
      </trkpt>
      <trkpt lat="44.59823" lon="1.97558">
        <ele>205.38</ele>
        <time>2021-10-06T12:34:59Z</time>
      </trkpt>
      <trkpt lat="44.59827" lon="1.97549">
        <ele>204.9</ele>
        <time>2021-10-06T12:35:00Z</time>
      </trkpt>
      <trkpt lat="44.59831" lon="1.97542">
        <ele>204.42</ele>
        <time>2021-10-06T12:35:01Z</time>
      </trkpt>
      <trkpt lat="44.59835" lon="1.97535">
        <ele>204.42</ele>
        <time>2021-10-06T12:35:02Z</time>
      </trkpt>
      <trkpt lat="44.59856" lon="1.97503">
        <ele>201.53</ele>
        <time>2021-10-06T12:35:06Z</time>
      </trkpt>
      <trkpt lat="44.59872" lon="1.97478">
        <ele>198.65</ele>
        <time>2021-10-06T12:35:09Z</time>
      </trkpt>
      <trkpt lat="44.59875" lon="1.9747">
        <ele>198.17</ele>
        <time>2021-10-06T12:35:10Z</time>
      </trkpt>
      <trkpt lat="44.59878" lon="1.97462">
        <ele>197.21</ele>
        <time>2021-10-06T12:35:11Z</time>
      </trkpt>
      <trkpt lat="44.5988" lon="1.97453">
        <ele>196.25</ele>
        <time>2021-10-06T12:35:12Z</time>
      </trkpt>
      <trkpt lat="44.5988" lon="1.97444">
        <ele>195.28</ele>
        <time>2021-10-06T12:35:13Z</time>
      </trkpt>
      <trkpt lat="44.59879" lon="1.97434">
        <ele>194.32</ele>
        <time>2021-10-06T12:35:14Z</time>
      </trkpt>
      <trkpt lat="44.59877" lon="1.97424">
        <ele>193.36</ele>
        <time>2021-10-06T12:35:15Z</time>
      </trkpt>
      <trkpt lat="44.59873" lon="1.97415">
        <ele>192.4</ele>
        <time>2021-10-06T12:35:16Z</time>
      </trkpt>
      <trkpt lat="44.59867" lon="1.97407">
        <ele>191.92</ele>
        <time>2021-10-06T12:35:17Z</time>
      </trkpt>
      <trkpt lat="44.59859" lon="1.97402">
        <ele>190.96</ele>
        <time>2021-10-06T12:35:18Z</time>
      </trkpt>
      <trkpt lat="44.5985" lon="1.97399">
        <ele>190</ele>
        <time>2021-10-06T12:35:19Z</time>
      </trkpt>
      <trkpt lat="44.59841" lon="1.97398">
        <ele>189.52</ele>
        <time>2021-10-06T12:35:20Z</time>
      </trkpt>
      <trkpt lat="44.59831" lon="1.97399">
        <ele>189.04</ele>
        <time>2021-10-06T12:35:21Z</time>
      </trkpt>
      <trkpt lat="44.59821" lon="1.97402">
        <ele>189.04</ele>
        <time>2021-10-06T12:35:22Z</time>
      </trkpt>
      <trkpt lat="44.59812" lon="1.97405">
        <ele>188.56</ele>
        <time>2021-10-06T12:35:23Z</time>
      </trkpt>
      <trkpt lat="44.59744" lon="1.97429">
        <ele>188.56</ele>
        <time>2021-10-06T12:35:32Z</time>
      </trkpt>
      <trkpt lat="44.59734" lon="1.97431">
        <ele>190</ele>
        <time>2021-10-06T12:35:34Z</time>
      </trkpt>
      <trkpt lat="44.59729" lon="1.97431">
        <ele>190</ele>
        <time>2021-10-06T12:35:35Z</time>
      </trkpt>
      <trkpt lat="44.59692" lon="1.97435">
        <ele>190</ele>
        <time>2021-10-06T12:35:46Z</time>
      </trkpt>
      <trkpt lat="44.59685" lon="1.97439">
        <ele>190</ele>
        <time>2021-10-06T12:35:52Z</time>
      </trkpt>
      <trkpt lat="44.59684" lon="1.97439">
        <ele>190</ele>
        <time>2021-10-06T12:35:53Z</time>
      </trkpt>
      <trkpt lat="44.59684" lon="1.97438">
        <ele>190</ele>
        <time>2021-10-06T12:36:04Z</time>
      </trkpt>
      <trkpt lat="44.59683" lon="1.97436">
        <ele>190</ele>
        <time>2021-10-06T12:36:32Z</time>
      </trkpt>
      <trkpt lat="44.59683" lon="1.97433">
        <ele>190</ele>
        <time>2021-10-06T12:36:34Z</time>
      </trkpt>
      <trkpt lat="44.59683" lon="1.97431">
        <ele>190</ele>
        <time>2021-10-06T12:36:35Z</time>
      </trkpt>
      <trkpt lat="44.59682" lon="1.97429">
        <ele>190</ele>
        <time>2021-10-06T12:36:36Z</time>
      </trkpt>
      <trkpt lat="44.59682" lon="1.97423">
        <ele>190</ele>
        <time>2021-10-06T12:36:39Z</time>
      </trkpt>
      <trkpt lat="44.59682" lon="1.9742">
        <ele>190</ele>
        <time>2021-10-06T12:36:40Z</time>
      </trkpt>
      <trkpt lat="44.59684" lon="1.97418">
        <ele>190</ele>
        <time>2021-10-06T12:36:41Z</time>
      </trkpt>
      <trkpt lat="44.59712" lon="1.97367">
        <ele>190</ele>
        <time>2021-10-06T12:36:56Z</time>
      </trkpt>
      <trkpt lat="44.59745" lon="1.97267">
        <ele>190.96</ele>
        <time>2021-10-06T12:37:17Z</time>
      </trkpt>
      <trkpt lat="44.59773" lon="1.972">
        <ele>190.96</ele>
        <time>2021-10-06T12:37:32Z</time>
      </trkpt>
      <trkpt lat="44.59817" lon="1.9715">
        <ele>191.92</ele>
        <time>2021-10-06T12:37:48Z</time>
      </trkpt>
      <trkpt lat="44.59868" lon="1.97125">
        <ele>194.8</ele>
        <time>2021-10-06T12:38:04Z</time>
      </trkpt>
      <trkpt lat="44.59903" lon="1.97124">
        <ele>196.25</ele>
        <time>2021-10-06T12:38:15Z</time>
      </trkpt>
      <trkpt lat="44.59945" lon="1.97121">
        <ele>197.21</ele>
        <time>2021-10-06T12:38:27Z</time>
      </trkpt>
      <trkpt lat="44.59988" lon="1.9711">
        <ele>197.69</ele>
        <time>2021-10-06T12:38:40Z</time>
      </trkpt>
      <trkpt lat="44.60022" lon="1.97108">
        <ele>198.65</ele>
        <time>2021-10-06T12:38:53Z</time>
      </trkpt>
      <trkpt lat="44.60044" lon="1.97134">
        <ele>197.21</ele>
        <time>2021-10-06T12:39:04Z</time>
      </trkpt>
      <trkpt lat="44.60045" lon="1.97135">
        <ele>197.21</ele>
        <time>2021-10-06T12:39:05Z</time>
      </trkpt>
      <trkpt lat="44.60047" lon="1.97135">
        <ele>196.25</ele>
        <time>2021-10-06T12:39:20Z</time>
      </trkpt>
      <trkpt lat="44.60059" lon="1.97141">
        <ele>196.25</ele>
        <time>2021-10-06T12:39:41Z</time>
      </trkpt>
      <trkpt lat="44.60084" lon="1.97128">
        <ele>195.77</ele>
        <time>2021-10-06T12:39:50Z</time>
      </trkpt>
      <trkpt lat="44.60118" lon="1.97098">
        <ele>195.77</ele>
        <time>2021-10-06T12:40:04Z</time>
      </trkpt>
      <trkpt lat="44.60147" lon="1.97068">
        <ele>198.17</ele>
        <time>2021-10-06T12:40:18Z</time>
      </trkpt>
      <trkpt lat="44.6018" lon="1.97024">
        <ele>201.05</ele>
        <time>2021-10-06T12:40:34Z</time>
      </trkpt>
      <trkpt lat="44.60209" lon="1.96983">
        <ele>203.94</ele>
        <time>2021-10-06T12:40:50Z</time>
      </trkpt>
      <trkpt lat="44.60231" lon="1.96952">
        <ele>207.3</ele>
        <time>2021-10-06T12:41:04Z</time>
      </trkpt>
      <trkpt lat="44.60253" lon="1.96938">
        <ele>209.22</ele>
        <time>2021-10-06T12:41:18Z</time>
      </trkpt>
      <trkpt lat="44.60272" lon="1.96934">
        <ele>212.11</ele>
        <time>2021-10-06T12:41:30Z</time>
      </trkpt>
      <trkpt lat="44.60273" lon="1.96934">
        <ele>212.59</ele>
        <time>2021-10-06T12:41:31Z</time>
      </trkpt>
      <trkpt lat="44.60275" lon="1.96934">
        <ele>212.59</ele>
        <time>2021-10-06T12:41:32Z</time>
      </trkpt>
      <trkpt lat="44.60276" lon="1.96933">
        <ele>212.59</ele>
        <time>2021-10-06T12:41:33Z</time>
      </trkpt>
      <trkpt lat="44.60278" lon="1.96933">
        <ele>213.55</ele>
        <time>2021-10-06T12:41:34Z</time>
      </trkpt>
      <trkpt lat="44.60302" lon="1.96926">
        <ele>215.95</ele>
        <time>2021-10-06T12:41:50Z</time>
      </trkpt>
      <trkpt lat="44.60312" lon="1.96924">
        <ele>217.4</ele>
        <time>2021-10-06T12:41:56Z</time>
      </trkpt>
      <trkpt lat="44.60314" lon="1.96924">
        <ele>217.4</ele>
        <time>2021-10-06T12:41:57Z</time>
      </trkpt>
      <trkpt lat="44.60315" lon="1.96924">
        <ele>217.88</ele>
        <time>2021-10-06T12:41:58Z</time>
      </trkpt>
      <trkpt lat="44.6034" lon="1.96923">
        <ele>219.8</ele>
        <time>2021-10-06T12:42:13Z</time>
      </trkpt>
      <trkpt lat="44.6035" lon="1.96922">
        <ele>221.24</ele>
        <time>2021-10-06T12:42:27Z</time>
      </trkpt>
      <trkpt lat="44.60353" lon="1.96916">
        <ele>221.24</ele>
        <time>2021-10-06T12:42:54Z</time>
      </trkpt>
      <trkpt lat="44.60351" lon="1.96919">
        <ele>221.24</ele>
        <time>2021-10-06T12:43:19Z</time>
      </trkpt>
      <trkpt lat="44.6035" lon="1.9692">
        <ele>221.24</ele>
        <time>2021-10-06T12:43:22Z</time>
      </trkpt>
      <trkpt lat="44.60349" lon="1.96921">
        <ele>221.24</ele>
        <time>2021-10-06T12:43:23Z</time>
      </trkpt>
      <trkpt lat="44.60351" lon="1.96919">
        <ele>220.28</ele>
        <time>2021-10-06T12:43:30Z</time>
      </trkpt>
      <trkpt lat="44.6035" lon="1.96916">
        <ele>220.28</ele>
        <time>2021-10-06T12:43:49Z</time>
      </trkpt>
      <trkpt lat="44.60351" lon="1.96919">
        <ele>220.28</ele>
        <time>2021-10-06T12:44:06Z</time>
      </trkpt>
      <trkpt lat="44.60352" lon="1.96918">
        <ele>219.32</ele>
        <time>2021-10-06T12:44:23Z</time>
      </trkpt>
      <trkpt lat="44.60352" lon="1.96919">
        <ele>219.32</ele>
        <time>2021-10-06T12:44:40Z</time>
      </trkpt>
      <trkpt lat="44.60352" lon="1.96916">
        <ele>219.32</ele>
        <time>2021-10-06T12:45:04Z</time>
      </trkpt>
      <trkpt lat="44.60353" lon="1.96917">
        <ele>219.32</ele>
        <time>2021-10-06T12:45:23Z</time>
      </trkpt>
      <trkpt lat="44.60352" lon="1.96916">
        <ele>219.32</ele>
        <time>2021-10-06T12:45:51Z</time>
      </trkpt>
      <trkpt lat="44.60352" lon="1.96915">
        <ele>219.8</ele>
        <time>2021-10-06T12:46:28Z</time>
      </trkpt>
      <trkpt lat="44.60351" lon="1.96918">
        <ele>219.8</ele>
        <time>2021-10-06T12:46:52Z</time>
      </trkpt>
      <trkpt lat="44.60354" lon="1.96919">
        <ele>219.8</ele>
        <time>2021-10-06T12:47:28Z</time>
      </trkpt>
      <trkpt lat="44.60352" lon="1.96918">
        <ele>221.24</ele>
        <time>2021-10-06T12:47:52Z</time>
      </trkpt>
      <trkpt lat="44.60354" lon="1.96917">
        <ele>221.24</ele>
        <time>2021-10-06T12:48:16Z</time>
      </trkpt>
      <trkpt lat="44.60354" lon="1.96918">
        <ele>221.72</ele>
        <time>2021-10-06T12:48:28Z</time>
      </trkpt>
      <trkpt lat="44.60364" lon="1.96919">
        <ele>222.68</ele>
        <time>2021-10-06T12:48:37Z</time>
      </trkpt>
      <trkpt lat="44.60386" lon="1.96921">
        <ele>224.61</ele>
        <time>2021-10-06T12:48:52Z</time>
      </trkpt>
      <trkpt lat="44.60395" lon="1.96924">
        <ele>226.05</ele>
        <time>2021-10-06T12:48:59Z</time>
      </trkpt>
      <trkpt lat="44.60397" lon="1.96924">
        <ele>226.05</ele>
        <time>2021-10-06T12:49:00Z</time>
      </trkpt>
      <trkpt lat="44.60415" lon="1.96924">
        <ele>227.97</ele>
        <time>2021-10-06T12:49:13Z</time>
      </trkpt>
      <trkpt lat="44.60435" lon="1.9692">
        <ele>229.89</ele>
        <time>2021-10-06T12:49:28Z</time>
      </trkpt>
      <trkpt lat="44.60436" lon="1.96919">
        <ele>229.89</ele>
        <time>2021-10-06T12:49:29Z</time>
      </trkpt>
      <trkpt lat="44.60438" lon="1.96919">
        <ele>229.89</ele>
        <time>2021-10-06T12:49:30Z</time>
      </trkpt>
      <trkpt lat="44.60462" lon="1.96906">
        <ele>231.33</ele>
        <time>2021-10-06T12:49:47Z</time>
      </trkpt>
      <trkpt lat="44.60474" lon="1.96896">
        <ele>232.3</ele>
        <time>2021-10-06T12:49:57Z</time>
      </trkpt>
      <trkpt lat="44.60476" lon="1.96895">
        <ele>232.78</ele>
        <time>2021-10-06T12:49:58Z</time>
      </trkpt>
      <trkpt lat="44.60477" lon="1.96894">
        <ele>232.78</ele>
        <time>2021-10-06T12:49:59Z</time>
      </trkpt>
      <trkpt lat="44.60478" lon="1.96892">
        <ele>232.78</ele>
        <time>2021-10-06T12:50:00Z</time>
      </trkpt>
      <trkpt lat="44.60479" lon="1.96891">
        <ele>232.78</ele>
        <time>2021-10-06T12:50:01Z</time>
      </trkpt>
      <trkpt lat="44.60496" lon="1.96876">
        <ele>235.66</ele>
        <time>2021-10-06T12:50:17Z</time>
      </trkpt>
      <trkpt lat="44.60513" lon="1.96863">
        <ele>238.54</ele>
        <time>2021-10-06T12:50:32Z</time>
      </trkpt>
      <trkpt lat="44.60528" lon="1.96849">
        <ele>240.47</ele>
        <time>2021-10-06T12:50:46Z</time>
      </trkpt>
      <trkpt lat="44.60545" lon="1.96829">
        <ele>242.39</ele>
        <time>2021-10-06T12:51:03Z</time>
      </trkpt>
      <trkpt lat="44.6056" lon="1.96814">
        <ele>243.83</ele>
        <time>2021-10-06T12:51:15Z</time>
      </trkpt>
      <trkpt lat="44.60573" lon="1.96801">
        <ele>244.31</ele>
        <time>2021-10-06T12:51:28Z</time>
      </trkpt>
      <trkpt lat="44.60577" lon="1.96799">
        <ele>244.31</ele>
        <time>2021-10-06T12:51:32Z</time>
      </trkpt>
      <trkpt lat="44.60579" lon="1.96798">
        <ele>244.31</ele>
        <time>2021-10-06T12:51:33Z</time>
      </trkpt>
      <trkpt lat="44.6058" lon="1.96797">
        <ele>244.79</ele>
        <time>2021-10-06T12:51:34Z</time>
      </trkpt>
      <trkpt lat="44.60604" lon="1.96777">
        <ele>246.23</ele>
        <time>2021-10-06T12:51:50Z</time>
      </trkpt>
      <trkpt lat="44.60627" lon="1.96758">
        <ele>249.12</ele>
        <time>2021-10-06T12:52:05Z</time>
      </trkpt>
      <trkpt lat="44.60645" lon="1.96749">
        <ele>251.04</ele>
        <time>2021-10-06T12:52:19Z</time>
      </trkpt>
      <trkpt lat="44.60649" lon="1.96748">
        <ele>251.52</ele>
        <time>2021-10-06T12:52:22Z</time>
      </trkpt>
      <trkpt lat="44.6065" lon="1.96747">
        <ele>251.52</ele>
        <time>2021-10-06T12:52:23Z</time>
      </trkpt>
      <trkpt lat="44.60652" lon="1.96747">
        <ele>252</ele>
        <time>2021-10-06T12:52:24Z</time>
      </trkpt>
      <trkpt lat="44.60654" lon="1.96746">
        <ele>252</ele>
        <time>2021-10-06T12:52:25Z</time>
      </trkpt>
      <trkpt lat="44.60655" lon="1.96746">
        <ele>252</ele>
        <time>2021-10-06T12:52:26Z</time>
      </trkpt>
      <trkpt lat="44.60679" lon="1.96741">
        <ele>252.96</ele>
        <time>2021-10-06T12:52:42Z</time>
      </trkpt>
      <trkpt lat="44.60684" lon="1.96739">
        <ele>253.44</ele>
        <time>2021-10-06T12:52:59Z</time>
      </trkpt>
      <trkpt lat="44.60689" lon="1.96741">
        <ele>253.44</ele>
        <time>2021-10-06T12:53:18Z</time>
      </trkpt>
      <trkpt lat="44.60689" lon="1.96743">
        <ele>253.44</ele>
        <time>2021-10-06T12:53:19Z</time>
      </trkpt>
      <trkpt lat="44.60703" lon="1.9677">
        <ele>250.08</ele>
        <time>2021-10-06T12:53:29Z</time>
      </trkpt>
      <trkpt lat="44.60717" lon="1.96799">
        <ele>248.16</ele>
        <time>2021-10-06T12:53:39Z</time>
      </trkpt>
      <trkpt lat="44.60719" lon="1.96802">
        <ele>248.16</ele>
        <time>2021-10-06T12:53:40Z</time>
      </trkpt>
      <trkpt lat="44.60721" lon="1.96814">
        <ele>247.68</ele>
        <time>2021-10-06T12:53:44Z</time>
      </trkpt>
      <trkpt lat="44.60732" lon="1.96844">
        <ele>244.79</ele>
        <time>2021-10-06T12:53:54Z</time>
      </trkpt>
      <trkpt lat="44.60736" lon="1.96844">
        <ele>244.79</ele>
        <time>2021-10-06T12:53:56Z</time>
      </trkpt>
      <trkpt lat="44.60747" lon="1.9684">
        <ele>245.75</ele>
        <time>2021-10-06T12:54:05Z</time>
      </trkpt>
      <trkpt lat="44.60756" lon="1.96849">
        <ele>243.83</ele>
        <time>2021-10-06T12:54:10Z</time>
      </trkpt>
      <trkpt lat="44.60765" lon="1.96872">
        <ele>240.95</ele>
        <time>2021-10-06T12:54:16Z</time>
      </trkpt>
      <trkpt lat="44.60774" lon="1.96898">
        <ele>237.58</ele>
        <time>2021-10-06T12:54:23Z</time>
      </trkpt>
      <trkpt lat="44.60786" lon="1.96921">
        <ele>236.62</ele>
        <time>2021-10-06T12:54:35Z</time>
      </trkpt>
      <trkpt lat="44.60786" lon="1.96923">
        <ele>236.62</ele>
        <time>2021-10-06T12:54:36Z</time>
      </trkpt>
      <trkpt lat="44.60786" lon="1.96925">
        <ele>236.14</ele>
        <time>2021-10-06T12:54:37Z</time>
      </trkpt>
      <trkpt lat="44.60786" lon="1.96928">
        <ele>236.14</ele>
        <time>2021-10-06T12:54:38Z</time>
      </trkpt>
      <trkpt lat="44.60787" lon="1.9693">
        <ele>236.14</ele>
        <time>2021-10-06T12:54:39Z</time>
      </trkpt>
      <trkpt lat="44.60789" lon="1.96931">
        <ele>235.66</ele>
        <time>2021-10-06T12:54:40Z</time>
      </trkpt>
      <trkpt lat="44.6079" lon="1.96933">
        <ele>235.66</ele>
        <time>2021-10-06T12:54:41Z</time>
      </trkpt>
      <trkpt lat="44.60791" lon="1.96935">
        <ele>235.18</ele>
        <time>2021-10-06T12:54:42Z</time>
      </trkpt>
      <trkpt lat="44.60792" lon="1.96939">
        <ele>235.18</ele>
        <time>2021-10-06T12:54:43Z</time>
      </trkpt>
      <trkpt lat="44.60793" lon="1.96942">
        <ele>235.18</ele>
        <time>2021-10-06T12:54:44Z</time>
      </trkpt>
      <trkpt lat="44.60794" lon="1.96945">
        <ele>235.18</ele>
        <time>2021-10-06T12:54:45Z</time>
      </trkpt>
      <trkpt lat="44.60796" lon="1.96948">
        <ele>235.18</ele>
        <time>2021-10-06T12:54:46Z</time>
      </trkpt>
      <trkpt lat="44.60797" lon="1.96951">
        <ele>234.7</ele>
        <time>2021-10-06T12:54:47Z</time>
      </trkpt>
      <trkpt lat="44.60799" lon="1.96954">
        <ele>234.7</ele>
        <time>2021-10-06T12:54:48Z</time>
      </trkpt>
      <trkpt lat="44.60801" lon="1.96958">
        <ele>234.22</ele>
        <time>2021-10-06T12:54:49Z</time>
      </trkpt>
      <trkpt lat="44.60812" lon="1.96983">
        <ele>233.26</ele>
        <time>2021-10-06T12:54:54Z</time>
      </trkpt>
      <trkpt lat="44.6082" lon="1.97">
        <ele>231.81</ele>
        <time>2021-10-06T12:54:57Z</time>
      </trkpt>
      <trkpt lat="44.60824" lon="1.97006">
        <ele>231.33</ele>
        <time>2021-10-06T12:54:58Z</time>
      </trkpt>
      <trkpt lat="44.60828" lon="1.9701">
        <ele>230.85</ele>
        <time>2021-10-06T12:54:59Z</time>
      </trkpt>
      <trkpt lat="44.60833" lon="1.97014">
        <ele>229.41</ele>
        <time>2021-10-06T12:55:00Z</time>
      </trkpt>
      <trkpt lat="44.60837" lon="1.97015">
        <ele>229.41</ele>
        <time>2021-10-06T12:55:01Z</time>
      </trkpt>
      <trkpt lat="44.60842" lon="1.97018">
        <ele>228.93</ele>
        <time>2021-10-06T12:55:02Z</time>
      </trkpt>
      <trkpt lat="44.60846" lon="1.9702">
        <ele>228.93</ele>
        <time>2021-10-06T12:55:03Z</time>
      </trkpt>
      <trkpt lat="44.6085" lon="1.97025">
        <ele>227.97</ele>
        <time>2021-10-06T12:55:04Z</time>
      </trkpt>
      <trkpt lat="44.60854" lon="1.97031">
        <ele>227.97</ele>
        <time>2021-10-06T12:55:05Z</time>
      </trkpt>
      <trkpt lat="44.60857" lon="1.97037">
        <ele>226.53</ele>
        <time>2021-10-06T12:55:06Z</time>
      </trkpt>
      <trkpt lat="44.6086" lon="1.97045">
        <ele>226.05</ele>
        <time>2021-10-06T12:55:07Z</time>
      </trkpt>
      <trkpt lat="44.60864" lon="1.97054">
        <ele>224.61</ele>
        <time>2021-10-06T12:55:08Z</time>
      </trkpt>
      <trkpt lat="44.60869" lon="1.97064">
        <ele>223.64</ele>
        <time>2021-10-06T12:55:09Z</time>
      </trkpt>
      <trkpt lat="44.6088" lon="1.97084">
        <ele>222.2</ele>
        <time>2021-10-06T12:55:11Z</time>
      </trkpt>
      <trkpt lat="44.60891" lon="1.97103">
        <ele>220.28</ele>
        <time>2021-10-06T12:55:13Z</time>
      </trkpt>
      <trkpt lat="44.60896" lon="1.97113">
        <ele>220.28</ele>
        <time>2021-10-06T12:55:14Z</time>
      </trkpt>
      <trkpt lat="44.60899" lon="1.97124">
        <ele>220.28</ele>
        <time>2021-10-06T12:55:15Z</time>
      </trkpt>
      <trkpt lat="44.60901" lon="1.97134">
        <ele>219.8</ele>
        <time>2021-10-06T12:55:16Z</time>
      </trkpt>
      <trkpt lat="44.60902" lon="1.97144">
        <ele>219.8</ele>
        <time>2021-10-06T12:55:17Z</time>
      </trkpt>
      <trkpt lat="44.60901" lon="1.97154">
        <ele>219.8</ele>
        <time>2021-10-06T12:55:18Z</time>
      </trkpt>
      <trkpt lat="44.609" lon="1.97162">
        <ele>219.8</ele>
        <time>2021-10-06T12:55:19Z</time>
      </trkpt>
      <trkpt lat="44.60889" lon="1.97209">
        <ele>221.72</ele>
        <time>2021-10-06T12:55:29Z</time>
      </trkpt>
      <trkpt lat="44.60878" lon="1.97256">
        <ele>223.64</ele>
        <time>2021-10-06T12:55:43Z</time>
      </trkpt>
      <trkpt lat="44.60866" lon="1.97321">
        <ele>224.61</ele>
        <time>2021-10-06T12:56:01Z</time>
      </trkpt>
      <trkpt lat="44.60859" lon="1.97355">
        <ele>225.09</ele>
        <time>2021-10-06T12:56:14Z</time>
      </trkpt>
      <trkpt lat="44.60855" lon="1.97367">
        <ele>223.64</ele>
        <time>2021-10-06T12:56:19Z</time>
      </trkpt>
      <trkpt lat="44.60855" lon="1.97374">
        <ele>223.64</ele>
        <time>2021-10-06T12:56:31Z</time>
      </trkpt>
      <trkpt lat="44.60857" lon="1.97375">
        <ele>224.12</ele>
        <time>2021-10-06T12:56:36Z</time>
      </trkpt>
      <trkpt lat="44.60866" lon="1.97375">
        <ele>225.57</ele>
        <time>2021-10-06T12:56:42Z</time>
      </trkpt>
      <trkpt lat="44.60886" lon="1.97383">
        <ele>228.93</ele>
        <time>2021-10-06T12:56:56Z</time>
      </trkpt>
      <trkpt lat="44.60893" lon="1.97416">
        <ele>229.41</ele>
        <time>2021-10-06T12:57:11Z</time>
      </trkpt>
      <trkpt lat="44.60894" lon="1.97437">
        <ele>227.97</ele>
        <time>2021-10-06T12:57:17Z</time>
      </trkpt>
      <trkpt lat="44.60908" lon="1.97468">
        <ele>227.97</ele>
        <time>2021-10-06T12:57:31Z</time>
      </trkpt>
      <trkpt lat="44.60908" lon="1.97468">
        <ele>227.97</ele>
        <time>2021-10-06T12:57:43Z</time>
      </trkpt>
      <trkpt lat="44.60906" lon="1.97466">
        <ele>227.49</ele>
        <time>2021-10-06T12:58:00Z</time>
      </trkpt>
      <trkpt lat="44.60894" lon="1.97441">
        <ele>227.49</ele>
        <time>2021-10-06T12:58:14Z</time>
      </trkpt>
      <trkpt lat="44.60893" lon="1.97432">
        <ele>227.49</ele>
        <time>2021-10-06T12:58:27Z</time>
      </trkpt>
      <trkpt lat="44.60891" lon="1.97432">
        <ele>227.49</ele>
        <time>2021-10-06T12:58:45Z</time>
      </trkpt>
      <trkpt lat="44.6089" lon="1.97432">
        <ele>227.97</ele>
        <time>2021-10-06T12:59:15Z</time>
      </trkpt>
      <trkpt lat="44.6089" lon="1.97431">
        <ele>227.97</ele>
        <time>2021-10-06T12:59:41Z</time>
      </trkpt>
      <trkpt lat="44.60889" lon="1.97435">
        <ele>227.97</ele>
        <time>2021-10-06T13:00:03Z</time>
      </trkpt>
      <trkpt lat="44.60887" lon="1.97434">
        <ele>227.49</ele>
        <time>2021-10-06T13:00:27Z</time>
      </trkpt>
      <trkpt lat="44.60884" lon="1.97435">
        <ele>227.49</ele>
        <time>2021-10-06T13:00:52Z</time>
      </trkpt>
      <trkpt lat="44.60892" lon="1.97432">
        <ele>227.49</ele>
        <time>2021-10-06T13:01:12Z</time>
      </trkpt>
      <trkpt lat="44.60889" lon="1.97436">
        <ele>227.49</ele>
        <time>2021-10-06T13:01:36Z</time>
      </trkpt>
      <trkpt lat="44.60888" lon="1.97435">
        <ele>227.97</ele>
        <time>2021-10-06T13:02:09Z</time>
      </trkpt>
      <trkpt lat="44.60888" lon="1.97432">
        <ele>227.49</ele>
        <time>2021-10-06T13:02:48Z</time>
      </trkpt>
      <trkpt lat="44.60889" lon="1.97433">
        <ele>227.49</ele>
        <time>2021-10-06T13:03:18Z</time>
      </trkpt>
      <trkpt lat="44.6089" lon="1.97435">
        <ele>227.49</ele>
        <time>2021-10-06T13:03:54Z</time>
      </trkpt>
      <trkpt lat="44.60891" lon="1.97433">
        <ele>227.49</ele>
        <time>2021-10-06T13:04:25Z</time>
      </trkpt>
      <trkpt lat="44.60891" lon="1.97435">
        <ele>227.49</ele>
        <time>2021-10-06T13:04:56Z</time>
      </trkpt>
      <trkpt lat="44.60892" lon="1.97429">
        <ele>228.45</ele>
        <time>2021-10-06T13:05:36Z</time>
      </trkpt>
      <trkpt lat="44.6089" lon="1.97429">
        <ele>228.45</ele>
        <time>2021-10-06T13:06:06Z</time>
      </trkpt>
      <trkpt lat="44.60889" lon="1.97431">
        <ele>227.49</ele>
        <time>2021-10-06T13:06:32Z</time>
      </trkpt>
      <trkpt lat="44.60889" lon="1.97432">
        <ele>227.01</ele>
        <time>2021-10-06T13:06:59Z</time>
      </trkpt>
      <trkpt lat="44.60888" lon="1.97431">
        <ele>227.01</ele>
        <time>2021-10-06T13:07:26Z</time>
      </trkpt>
      <trkpt lat="44.60887" lon="1.97434">
        <ele>227.01</ele>
        <time>2021-10-06T13:07:49Z</time>
      </trkpt>
      <trkpt lat="44.60887" lon="1.97438">
        <ele>227.01</ele>
        <time>2021-10-06T13:08:32Z</time>
      </trkpt>
      <trkpt lat="44.60889" lon="1.97434">
        <ele>227.49</ele>
        <time>2021-10-06T13:09:14Z</time>
      </trkpt>
      <trkpt lat="44.60889" lon="1.97434">
        <ele>227.49</ele>
        <time>2021-10-06T13:09:42Z</time>
      </trkpt>
      <trkpt lat="44.60891" lon="1.97432">
        <ele>227.01</ele>
        <time>2021-10-06T13:10:12Z</time>
      </trkpt>
      <trkpt lat="44.60892" lon="1.97431">
        <ele>227.01</ele>
        <time>2021-10-06T13:10:34Z</time>
      </trkpt>
      <trkpt lat="44.60893" lon="1.97429">
        <ele>228.45</ele>
        <time>2021-10-06T13:10:53Z</time>
      </trkpt>
      <trkpt lat="44.60894" lon="1.97431">
        <ele>227.97</ele>
        <time>2021-10-06T13:11:13Z</time>
      </trkpt>
      <trkpt lat="44.60893" lon="1.9743">
        <ele>227.97</ele>
        <time>2021-10-06T13:11:35Z</time>
      </trkpt>
      <trkpt lat="44.6089" lon="1.97428">
        <ele>227.97</ele>
        <time>2021-10-06T13:11:59Z</time>
      </trkpt>
      <trkpt lat="44.60891" lon="1.97432">
        <ele>228.45</ele>
        <time>2021-10-06T13:12:19Z</time>
      </trkpt>
      <trkpt lat="44.6089" lon="1.97435">
        <ele>228.45</ele>
        <time>2021-10-06T13:12:39Z</time>
      </trkpt>
      <trkpt lat="44.60891" lon="1.97437">
        <ele>228.45</ele>
        <time>2021-10-06T13:12:40Z</time>
      </trkpt>
      <trkpt lat="44.60892" lon="1.97438">
        <ele>228.45</ele>
        <time>2021-10-06T13:12:41Z</time>
      </trkpt>
      <trkpt lat="44.60893" lon="1.9744">
        <ele>228.45</ele>
        <time>2021-10-06T13:12:42Z</time>
      </trkpt>
      <trkpt lat="44.60894" lon="1.97442">
        <ele>228.45</ele>
        <time>2021-10-06T13:12:43Z</time>
      </trkpt>
      <trkpt lat="44.60895" lon="1.97445">
        <ele>228.45</ele>
        <time>2021-10-06T13:12:44Z</time>
      </trkpt>
      <trkpt lat="44.60896" lon="1.97448">
        <ele>228.45</ele>
        <time>2021-10-06T13:12:45Z</time>
      </trkpt>
      <trkpt lat="44.60898" lon="1.9745">
        <ele>228.45</ele>
        <time>2021-10-06T13:12:46Z</time>
      </trkpt>
      <trkpt lat="44.60917" lon="1.9748">
        <ele>227.01</ele>
        <time>2021-10-06T13:12:58Z</time>
      </trkpt>
      <trkpt lat="44.60938" lon="1.975">
        <ele>223.64</ele>
        <time>2021-10-06T13:13:06Z</time>
      </trkpt>
      <trkpt lat="44.60947" lon="1.97512">
        <ele>220.76</ele>
        <time>2021-10-06T13:13:09Z</time>
      </trkpt>
      <trkpt lat="44.60954" lon="1.97522">
        <ele>219.32</ele>
        <time>2021-10-06T13:13:11Z</time>
      </trkpt>
      <trkpt lat="44.60957" lon="1.97527">
        <ele>218.36</ele>
        <time>2021-10-06T13:13:12Z</time>
      </trkpt>
      <trkpt lat="44.60965" lon="1.97538">
        <ele>217.88</ele>
        <time>2021-10-06T13:13:14Z</time>
      </trkpt>
      <trkpt lat="44.60984" lon="1.97575">
        <ele>217.4</ele>
        <time>2021-10-06T13:13:22Z</time>
      </trkpt>
      <trkpt lat="44.60987" lon="1.97581">
        <ele>218.84</ele>
        <time>2021-10-06T13:13:24Z</time>
      </trkpt>
      <trkpt lat="44.61" lon="1.97617">
        <ele>218.84</ele>
        <time>2021-10-06T13:13:35Z</time>
      </trkpt>
      <trkpt lat="44.61008" lon="1.97657">
        <ele>220.28</ele>
        <time>2021-10-06T13:13:47Z</time>
      </trkpt>
      <trkpt lat="44.61016" lon="1.97684">
        <ele>222.68</ele>
        <time>2021-10-06T13:13:58Z</time>
      </trkpt>
      <trkpt lat="44.61024" lon="1.97709">
        <ele>225.09</ele>
        <time>2021-10-06T13:14:11Z</time>
      </trkpt>
      <trkpt lat="44.61027" lon="1.97717">
        <ele>226.05</ele>
        <time>2021-10-06T13:14:16Z</time>
      </trkpt>
      <trkpt lat="44.61028" lon="1.97719">
        <ele>226.05</ele>
        <time>2021-10-06T13:14:17Z</time>
      </trkpt>
      <trkpt lat="44.61028" lon="1.97721">
        <ele>226.05</ele>
        <time>2021-10-06T13:14:18Z</time>
      </trkpt>
      <trkpt lat="44.61039" lon="1.97755">
        <ele>227.97</ele>
        <time>2021-10-06T13:14:33Z</time>
      </trkpt>
      <trkpt lat="44.6105" lon="1.97788">
        <ele>229.41</ele>
        <time>2021-10-06T13:14:48Z</time>
      </trkpt>
      <trkpt lat="44.6106" lon="1.97819">
        <ele>231.81</ele>
        <time>2021-10-06T13:15:04Z</time>
      </trkpt>
      <trkpt lat="44.61077" lon="1.97856">
        <ele>234.22</ele>
        <time>2021-10-06T13:15:23Z</time>
      </trkpt>
      <trkpt lat="44.61096" lon="1.97883">
        <ele>235.66</ele>
        <time>2021-10-06T13:15:39Z</time>
      </trkpt>
      <trkpt lat="44.61116" lon="1.97911">
        <ele>236.14</ele>
        <time>2021-10-06T13:15:55Z</time>
      </trkpt>
      <trkpt lat="44.61137" lon="1.97924">
        <ele>237.1</ele>
        <time>2021-10-06T13:16:10Z</time>
      </trkpt>
      <trkpt lat="44.61156" lon="1.97937">
        <ele>237.58</ele>
        <time>2021-10-06T13:16:24Z</time>
      </trkpt>
      <trkpt lat="44.61184" lon="1.97949">
        <ele>237.58</ele>
        <time>2021-10-06T13:16:39Z</time>
      </trkpt>
      <trkpt lat="44.61211" lon="1.97976">
        <ele>234.7</ele>
        <time>2021-10-06T13:16:50Z</time>
      </trkpt>
      <trkpt lat="44.61237" lon="1.98006">
        <ele>233.26</ele>
        <time>2021-10-06T13:17:05Z</time>
      </trkpt>
      <trkpt lat="44.61242" lon="1.98013">
        <ele>233.26</ele>
        <time>2021-10-06T13:17:10Z</time>
      </trkpt>
      <trkpt lat="44.61243" lon="1.98018">
        <ele>233.26</ele>
        <time>2021-10-06T13:17:13Z</time>
      </trkpt>
      <trkpt lat="44.61244" lon="1.98023">
        <ele>232.78</ele>
        <time>2021-10-06T13:17:27Z</time>
      </trkpt>
      <trkpt lat="44.61245" lon="1.98021">
        <ele>233.26</ele>
        <time>2021-10-06T13:17:37Z</time>
      </trkpt>
      <trkpt lat="44.61245" lon="1.98019">
        <ele>233.26</ele>
        <time>2021-10-06T13:17:38Z</time>
      </trkpt>
      <trkpt lat="44.61249" lon="1.98002">
        <ele>234.22</ele>
        <time>2021-10-06T13:17:47Z</time>
      </trkpt>
      <trkpt lat="44.61265" lon="1.97969">
        <ele>237.1</ele>
        <time>2021-10-06T13:18:04Z</time>
      </trkpt>
      <trkpt lat="44.61278" lon="1.97937">
        <ele>239.99</ele>
        <time>2021-10-06T13:18:21Z</time>
      </trkpt>
      <trkpt lat="44.61286" lon="1.97917">
        <ele>241.43</ele>
        <time>2021-10-06T13:18:36Z</time>
      </trkpt>
      <trkpt lat="44.61286" lon="1.9792">
        <ele>241.43</ele>
        <time>2021-10-06T13:18:47Z</time>
      </trkpt>
      <trkpt lat="44.61286" lon="1.97922">
        <ele>241.43</ele>
        <time>2021-10-06T13:18:48Z</time>
      </trkpt>
      <trkpt lat="44.61285" lon="1.97925">
        <ele>241.43</ele>
        <time>2021-10-06T13:18:49Z</time>
      </trkpt>
      <trkpt lat="44.61283" lon="1.97934">
        <ele>241.43</ele>
        <time>2021-10-06T13:18:54Z</time>
      </trkpt>
      <trkpt lat="44.61284" lon="1.97937">
        <ele>240.47</ele>
        <time>2021-10-06T13:18:55Z</time>
      </trkpt>
      <trkpt lat="44.61285" lon="1.97938">
        <ele>240.47</ele>
        <time>2021-10-06T13:18:56Z</time>
      </trkpt>
      <trkpt lat="44.61307" lon="1.97959">
        <ele>240.47</ele>
        <time>2021-10-06T13:19:10Z</time>
      </trkpt>
      <trkpt lat="44.61349" lon="1.97994">
        <ele>237.58</ele>
        <time>2021-10-06T13:19:23Z</time>
      </trkpt>
      <trkpt lat="44.61353" lon="1.97996">
        <ele>237.1</ele>
        <time>2021-10-06T13:19:24Z</time>
      </trkpt>
      <trkpt lat="44.61376" lon="1.98001">
        <ele>234.7</ele>
        <time>2021-10-06T13:19:30Z</time>
      </trkpt>
      <trkpt lat="44.6138" lon="1.98">
        <ele>234.7</ele>
        <time>2021-10-06T13:19:31Z</time>
      </trkpt>
      <trkpt lat="44.61384" lon="1.97999">
        <ele>234.22</ele>
        <time>2021-10-06T13:19:32Z</time>
      </trkpt>
      <trkpt lat="44.61387" lon="1.97997">
        <ele>233.74</ele>
        <time>2021-10-06T13:19:33Z</time>
      </trkpt>
      <trkpt lat="44.61391" lon="1.97994">
        <ele>233.26</ele>
        <time>2021-10-06T13:19:34Z</time>
      </trkpt>
      <trkpt lat="44.61394" lon="1.97992">
        <ele>233.26</ele>
        <time>2021-10-06T13:19:35Z</time>
      </trkpt>
      <trkpt lat="44.61396" lon="1.97992">
        <ele>232.78</ele>
        <time>2021-10-06T13:19:36Z</time>
      </trkpt>
      <trkpt lat="44.61399" lon="1.97994">
        <ele>232.3</ele>
        <time>2021-10-06T13:19:37Z</time>
      </trkpt>
      <trkpt lat="44.61402" lon="1.97998">
        <ele>231.33</ele>
        <time>2021-10-06T13:19:38Z</time>
      </trkpt>
      <trkpt lat="44.61409" lon="1.98007">
        <ele>229.89</ele>
        <time>2021-10-06T13:19:40Z</time>
      </trkpt>
      <trkpt lat="44.61413" lon="1.98012">
        <ele>228.93</ele>
        <time>2021-10-06T13:19:41Z</time>
      </trkpt>
      <trkpt lat="44.61419" lon="1.98015">
        <ele>227.97</ele>
        <time>2021-10-06T13:19:42Z</time>
      </trkpt>
      <trkpt lat="44.61425" lon="1.98017">
        <ele>227.49</ele>
        <time>2021-10-06T13:19:43Z</time>
      </trkpt>
      <trkpt lat="44.6143" lon="1.98019">
        <ele>227.01</ele>
        <time>2021-10-06T13:19:44Z</time>
      </trkpt>
      <trkpt lat="44.61447" lon="1.98026">
        <ele>224.12</ele>
        <time>2021-10-06T13:19:47Z</time>
      </trkpt>
      <trkpt lat="44.61452" lon="1.9803">
        <ele>223.16</ele>
        <time>2021-10-06T13:19:48Z</time>
      </trkpt>
      <trkpt lat="44.61457" lon="1.98035">
        <ele>221.72</ele>
        <time>2021-10-06T13:19:49Z</time>
      </trkpt>
      <trkpt lat="44.6146" lon="1.98041">
        <ele>220.76</ele>
        <time>2021-10-06T13:19:50Z</time>
      </trkpt>
      <trkpt lat="44.61463" lon="1.98047">
        <ele>219.8</ele>
        <time>2021-10-06T13:19:51Z</time>
      </trkpt>
      <trkpt lat="44.61464" lon="1.98052">
        <ele>218.84</ele>
        <time>2021-10-06T13:19:52Z</time>
      </trkpt>
      <trkpt lat="44.61463" lon="1.98058">
        <ele>218.36</ele>
        <time>2021-10-06T13:19:53Z</time>
      </trkpt>
      <trkpt lat="44.61462" lon="1.98063">
        <ele>217.88</ele>
        <time>2021-10-06T13:19:54Z</time>
      </trkpt>
      <trkpt lat="44.6146" lon="1.98068">
        <ele>217.4</ele>
        <time>2021-10-06T13:19:55Z</time>
      </trkpt>
      <trkpt lat="44.61447" lon="1.98098">
        <ele>215.47</ele>
        <time>2021-10-06T13:20:06Z</time>
      </trkpt>
      <trkpt lat="44.6145" lon="1.98098">
        <ele>215.47</ele>
        <time>2021-10-06T13:20:19Z</time>
      </trkpt>
      <trkpt lat="44.6145" lon="1.98096">
        <ele>215.47</ele>
        <time>2021-10-06T13:20:20Z</time>
      </trkpt>
      <trkpt lat="44.6145" lon="1.98094">
        <ele>215.47</ele>
        <time>2021-10-06T13:20:21Z</time>
      </trkpt>
      <trkpt lat="44.61451" lon="1.98092">
        <ele>215.47</ele>
        <time>2021-10-06T13:20:22Z</time>
      </trkpt>
      <trkpt lat="44.6146" lon="1.98071">
        <ele>216.91</ele>
        <time>2021-10-06T13:20:31Z</time>
      </trkpt>
      <trkpt lat="44.61465" lon="1.98052">
        <ele>217.88</ele>
        <time>2021-10-06T13:20:40Z</time>
      </trkpt>
      <trkpt lat="44.61466" lon="1.98051">
        <ele>217.88</ele>
        <time>2021-10-06T13:20:41Z</time>
      </trkpt>
      <trkpt lat="44.61467" lon="1.9805">
        <ele>218.84</ele>
        <time>2021-10-06T13:20:42Z</time>
      </trkpt>
      <trkpt lat="44.61469" lon="1.9805">
        <ele>218.84</ele>
        <time>2021-10-06T13:20:43Z</time>
      </trkpt>
      <trkpt lat="44.61471" lon="1.9805">
        <ele>218.84</ele>
        <time>2021-10-06T13:20:44Z</time>
      </trkpt>
      <trkpt lat="44.61473" lon="1.98051">
        <ele>218.84</ele>
        <time>2021-10-06T13:20:45Z</time>
      </trkpt>
      <trkpt lat="44.61475" lon="1.98052">
        <ele>218.84</ele>
        <time>2021-10-06T13:20:46Z</time>
      </trkpt>
      <trkpt lat="44.61477" lon="1.98053">
        <ele>218.84</ele>
        <time>2021-10-06T13:20:47Z</time>
      </trkpt>
      <trkpt lat="44.61499" lon="1.98068">
        <ele>218.84</ele>
        <time>2021-10-06T13:21:02Z</time>
      </trkpt>
      <trkpt lat="44.61519" lon="1.98083">
        <ele>221.72</ele>
        <time>2021-10-06T13:21:19Z</time>
      </trkpt>
      <trkpt lat="44.61525" lon="1.98086">
        <ele>222.68</ele>
        <time>2021-10-06T13:21:24Z</time>
      </trkpt>
      <trkpt lat="44.61539" lon="1.98097">
        <ele>225.57</ele>
        <time>2021-10-06T13:21:38Z</time>
      </trkpt>
      <trkpt lat="44.61552" lon="1.98107">
        <ele>228.93</ele>
        <time>2021-10-06T13:21:53Z</time>
      </trkpt>
      <trkpt lat="44.61563" lon="1.98113">
        <ele>230.37</ele>
        <time>2021-10-06T13:22:06Z</time>
      </trkpt>
      <trkpt lat="44.61577" lon="1.98123">
        <ele>232.78</ele>
        <time>2021-10-06T13:22:20Z</time>
      </trkpt>
      <trkpt lat="44.61593" lon="1.98129">
        <ele>234.7</ele>
        <time>2021-10-06T13:22:34Z</time>
      </trkpt>
      <trkpt lat="44.61595" lon="1.98131">
        <ele>234.7</ele>
        <time>2021-10-06T13:22:36Z</time>
      </trkpt>
      <trkpt lat="44.61596" lon="1.98138">
        <ele>235.66</ele>
        <time>2021-10-06T13:22:42Z</time>
      </trkpt>
      <trkpt lat="44.61594" lon="1.98156">
        <ele>234.22</ele>
        <time>2021-10-06T13:22:57Z</time>
      </trkpt>
      <trkpt lat="44.61588" lon="1.98173">
        <ele>232.3</ele>
        <time>2021-10-06T13:23:13Z</time>
      </trkpt>
      <trkpt lat="44.61581" lon="1.98192">
        <ele>231.33</ele>
        <time>2021-10-06T13:23:27Z</time>
      </trkpt>
      <trkpt lat="44.61573" lon="1.98212">
        <ele>229.41</ele>
        <time>2021-10-06T13:23:39Z</time>
      </trkpt>
      <trkpt lat="44.61563" lon="1.98245">
        <ele>227.01</ele>
        <time>2021-10-06T13:23:52Z</time>
      </trkpt>
      <trkpt lat="44.6155" lon="1.98274">
        <ele>224.61</ele>
        <time>2021-10-06T13:23:58Z</time>
      </trkpt>
      <trkpt lat="44.61533" lon="1.983">
        <ele>221.72</ele>
        <time>2021-10-06T13:24:02Z</time>
      </trkpt>
      <trkpt lat="44.61518" lon="1.98327">
        <ele>218.36</ele>
        <time>2021-10-06T13:24:06Z</time>
      </trkpt>
      <trkpt lat="44.61505" lon="1.98359">
        <ele>215.47</ele>
        <time>2021-10-06T13:24:11Z</time>
      </trkpt>
      <trkpt lat="44.61497" lon="1.98381">
        <ele>213.55</ele>
        <time>2021-10-06T13:24:15Z</time>
      </trkpt>
      <trkpt lat="44.61494" lon="1.98385">
        <ele>212.59</ele>
        <time>2021-10-06T13:24:16Z</time>
      </trkpt>
      <trkpt lat="44.61491" lon="1.98389">
        <ele>212.11</ele>
        <time>2021-10-06T13:24:17Z</time>
      </trkpt>
      <trkpt lat="44.61467" lon="1.98418">
        <ele>209.22</ele>
        <time>2021-10-06T13:24:25Z</time>
      </trkpt>
      <trkpt lat="44.61464" lon="1.98422">
        <ele>208.26</ele>
        <time>2021-10-06T13:24:26Z</time>
      </trkpt>
      <trkpt lat="44.61461" lon="1.98426">
        <ele>208.26</ele>
        <time>2021-10-06T13:24:27Z</time>
      </trkpt>
      <trkpt lat="44.61459" lon="1.98431">
        <ele>207.3</ele>
        <time>2021-10-06T13:24:28Z</time>
      </trkpt>
      <trkpt lat="44.61448" lon="1.98452">
        <ele>204.42</ele>
        <time>2021-10-06T13:24:33Z</time>
      </trkpt>
      <trkpt lat="44.61445" lon="1.98455">
        <ele>203.46</ele>
        <time>2021-10-06T13:24:34Z</time>
      </trkpt>
      <trkpt lat="44.61443" lon="1.98459">
        <ele>202.98</ele>
        <time>2021-10-06T13:24:35Z</time>
      </trkpt>
      <trkpt lat="44.61441" lon="1.98464">
        <ele>202.49</ele>
        <time>2021-10-06T13:24:36Z</time>
      </trkpt>
      <trkpt lat="44.61432" lon="1.98485">
        <ele>198.65</ele>
        <time>2021-10-06T13:24:41Z</time>
      </trkpt>
      <trkpt lat="44.61431" lon="1.98493">
        <ele>198.17</ele>
        <time>2021-10-06T13:24:49Z</time>
      </trkpt>
      <trkpt lat="44.61432" lon="1.98495">
        <ele>198.65</ele>
        <time>2021-10-06T13:25:01Z</time>
      </trkpt>
      <trkpt lat="44.61434" lon="1.98497">
        <ele>198.65</ele>
        <time>2021-10-06T13:25:02Z</time>
      </trkpt>
      <trkpt lat="44.61435" lon="1.98498">
        <ele>198.17</ele>
        <time>2021-10-06T13:25:03Z</time>
      </trkpt>
      <trkpt lat="44.61436" lon="1.985">
        <ele>198.17</ele>
        <time>2021-10-06T13:25:04Z</time>
      </trkpt>
      <trkpt lat="44.61437" lon="1.98503">
        <ele>198.17</ele>
        <time>2021-10-06T13:25:05Z</time>
      </trkpt>
      <trkpt lat="44.61437" lon="1.98505">
        <ele>198.17</ele>
        <time>2021-10-06T13:25:06Z</time>
      </trkpt>
      <trkpt lat="44.61437" lon="1.98508">
        <ele>198.17</ele>
        <time>2021-10-06T13:25:07Z</time>
      </trkpt>
      <trkpt lat="44.61437" lon="1.98509">
        <ele>198.17</ele>
        <time>2021-10-06T13:25:08Z</time>
      </trkpt>
      <trkpt lat="44.61437" lon="1.98511">
        <ele>198.17</ele>
        <time>2021-10-06T13:25:09Z</time>
      </trkpt>
      <trkpt lat="44.61437" lon="1.98513">
        <ele>198.17</ele>
        <time>2021-10-06T13:25:10Z</time>
      </trkpt>
      <trkpt lat="44.61435" lon="1.9854">
        <ele>198.17</ele>
        <time>2021-10-06T13:25:23Z</time>
      </trkpt>
      <trkpt lat="44.61442" lon="1.98562">
        <ele>198.17</ele>
        <time>2021-10-06T13:25:36Z</time>
      </trkpt>
      <trkpt lat="44.61458" lon="1.98584">
        <ele>198.17</ele>
        <time>2021-10-06T13:25:50Z</time>
      </trkpt>
      <trkpt lat="44.61478" lon="1.98604">
        <ele>198.17</ele>
        <time>2021-10-06T13:26:03Z</time>
      </trkpt>
      <trkpt lat="44.61509" lon="1.98619">
        <ele>198.17</ele>
        <time>2021-10-06T13:26:16Z</time>
      </trkpt>
      <trkpt lat="44.61554" lon="1.98637">
        <ele>198.17</ele>
        <time>2021-10-06T13:26:32Z</time>
      </trkpt>
      <trkpt lat="44.61589" lon="1.98641">
        <ele>198.17</ele>
        <time>2021-10-06T13:26:43Z</time>
      </trkpt>
      <trkpt lat="44.61627" lon="1.98656">
        <ele>198.17</ele>
        <time>2021-10-06T13:26:56Z</time>
      </trkpt>
      <trkpt lat="44.61675" lon="1.98689">
        <ele>198.17</ele>
        <time>2021-10-06T13:27:10Z</time>
      </trkpt>
      <trkpt lat="44.61719" lon="1.98714">
        <ele>198.17</ele>
        <time>2021-10-06T13:27:23Z</time>
      </trkpt>
      <trkpt lat="44.61759" lon="1.98723">
        <ele>199.61</ele>
        <time>2021-10-06T13:27:36Z</time>
      </trkpt>
      <trkpt lat="44.61799" lon="1.98726">
        <ele>198.65</ele>
        <time>2021-10-06T13:27:48Z</time>
      </trkpt>
      <trkpt lat="44.61844" lon="1.98718">
        <ele>198.65</ele>
        <time>2021-10-06T13:28:01Z</time>
      </trkpt>
      <trkpt lat="44.61899" lon="1.98732">
        <ele>199.61</ele>
        <time>2021-10-06T13:28:20Z</time>
      </trkpt>
      <trkpt lat="44.61946" lon="1.98759">
        <ele>200.57</ele>
        <time>2021-10-06T13:28:39Z</time>
      </trkpt>
      <trkpt lat="44.61992" lon="1.98767">
        <ele>201.05</ele>
        <time>2021-10-06T13:28:55Z</time>
      </trkpt>
      <trkpt lat="44.6203" lon="1.9877">
        <ele>201.53</ele>
        <time>2021-10-06T13:29:08Z</time>
      </trkpt>
      <trkpt lat="44.62063" lon="1.98772">
        <ele>201.53</ele>
        <time>2021-10-06T13:29:19Z</time>
      </trkpt>
      <trkpt lat="44.62071" lon="1.98774">
        <ele>200.09</ele>
        <time>2021-10-06T13:29:22Z</time>
      </trkpt>
      <trkpt lat="44.62103" lon="1.98775">
        <ele>200.09</ele>
        <time>2021-10-06T13:29:34Z</time>
      </trkpt>
      <trkpt lat="44.62118" lon="1.98772">
        <ele>200.09</ele>
        <time>2021-10-06T13:29:41Z</time>
      </trkpt>
      <trkpt lat="44.62121" lon="1.98773">
        <ele>200.09</ele>
        <time>2021-10-06T13:29:42Z</time>
      </trkpt>
      <trkpt lat="44.62124" lon="1.98774">
        <ele>200.09</ele>
        <time>2021-10-06T13:29:43Z</time>
      </trkpt>
      <trkpt lat="44.62126" lon="1.98774">
        <ele>200.09</ele>
        <time>2021-10-06T13:29:44Z</time>
      </trkpt>
      <trkpt lat="44.62128" lon="1.98775">
        <ele>200.09</ele>
        <time>2021-10-06T13:29:45Z</time>
      </trkpt>
      <trkpt lat="44.6216" lon="1.98775">
        <ele>200.09</ele>
        <time>2021-10-06T13:29:58Z</time>
      </trkpt>
      <trkpt lat="44.62194" lon="1.98777">
        <ele>200.09</ele>
        <time>2021-10-06T13:30:12Z</time>
      </trkpt>
      <trkpt lat="44.62232" lon="1.98781">
        <ele>200.09</ele>
        <time>2021-10-06T13:30:25Z</time>
      </trkpt>
      <trkpt lat="44.62268" lon="1.98796">
        <ele>200.09</ele>
        <time>2021-10-06T13:30:36Z</time>
      </trkpt>
      <trkpt lat="44.62318" lon="1.98816">
        <ele>199.61</ele>
        <time>2021-10-06T13:30:50Z</time>
      </trkpt>
      <trkpt lat="44.62348" lon="1.98841">
        <ele>201.05</ele>
        <time>2021-10-06T13:31:00Z</time>
      </trkpt>
      <trkpt lat="44.62394" lon="1.98887">
        <ele>201.05</ele>
        <time>2021-10-06T13:31:17Z</time>
      </trkpt>
      <trkpt lat="44.62439" lon="1.98923">
        <ele>202.01</ele>
        <time>2021-10-06T13:31:34Z</time>
      </trkpt>
      <trkpt lat="44.62478" lon="1.98954">
        <ele>202.01</ele>
        <time>2021-10-06T13:31:48Z</time>
      </trkpt>
      <trkpt lat="44.62523" lon="1.98975">
        <ele>202.49</ele>
        <time>2021-10-06T13:32:03Z</time>
      </trkpt>
      <trkpt lat="44.62557" lon="1.98984">
        <ele>202.98</ele>
        <time>2021-10-06T13:32:17Z</time>
      </trkpt>
      <trkpt lat="44.6257" lon="1.98983">
        <ele>202.98</ele>
        <time>2021-10-06T13:32:30Z</time>
      </trkpt>
      <trkpt lat="44.62572" lon="1.98981">
        <ele>202.98</ele>
        <time>2021-10-06T13:32:54Z</time>
      </trkpt>
      <trkpt lat="44.62575" lon="1.98979">
        <ele>203.46</ele>
        <time>2021-10-06T13:33:21Z</time>
      </trkpt>
      <trkpt lat="44.62575" lon="1.98981">
        <ele>203.46</ele>
        <time>2021-10-06T13:33:44Z</time>
      </trkpt>
      <trkpt lat="44.62574" lon="1.98982">
        <ele>203.94</ele>
        <time>2021-10-06T13:34:09Z</time>
      </trkpt>
      <trkpt lat="44.62573" lon="1.98981">
        <ele>204.42</ele>
        <time>2021-10-06T13:34:33Z</time>
      </trkpt>
      <trkpt lat="44.62572" lon="1.9898">
        <ele>204.42</ele>
        <time>2021-10-06T13:34:58Z</time>
      </trkpt>
      <trkpt lat="44.62572" lon="1.98979">
        <ele>204.42</ele>
        <time>2021-10-06T13:35:21Z</time>
      </trkpt>
      <trkpt lat="44.62572" lon="1.98979">
        <ele>204.9</ele>
        <time>2021-10-06T13:35:50Z</time>
      </trkpt>
      <trkpt lat="44.62575" lon="1.98981">
        <ele>204.9</ele>
        <time>2021-10-06T13:36:11Z</time>
      </trkpt>
      <trkpt lat="44.62587" lon="1.98987">
        <ele>207.3</ele>
        <time>2021-10-06T13:36:27Z</time>
      </trkpt>
      <trkpt lat="44.626" lon="1.98993">
        <ele>207.78</ele>
        <time>2021-10-06T13:36:43Z</time>
      </trkpt>
      <trkpt lat="44.62643" lon="1.99012">
        <ele>204.42</ele>
        <time>2021-10-06T13:36:53Z</time>
      </trkpt>
      <trkpt lat="44.62691" lon="1.99036">
        <ele>203.94</ele>
        <time>2021-10-06T13:37:07Z</time>
      </trkpt>
      <trkpt lat="44.62742" lon="1.99069">
        <ele>203.94</ele>
        <time>2021-10-06T13:37:23Z</time>
      </trkpt>
      <trkpt lat="44.62789" lon="1.99109">
        <ele>204.42</ele>
        <time>2021-10-06T13:37:38Z</time>
      </trkpt>
      <trkpt lat="44.62832" lon="1.99151">
        <ele>204.42</ele>
        <time>2021-10-06T13:37:53Z</time>
      </trkpt>
      <trkpt lat="44.62879" lon="1.9919">
        <ele>205.38</ele>
        <time>2021-10-06T13:38:09Z</time>
      </trkpt>
      <trkpt lat="44.62912" lon="1.99233">
        <ele>205.38</ele>
        <time>2021-10-06T13:38:24Z</time>
      </trkpt>
      <trkpt lat="44.62954" lon="1.99276">
        <ele>205.86</ele>
        <time>2021-10-06T13:38:40Z</time>
      </trkpt>
      <trkpt lat="44.62986" lon="1.99336">
        <ele>205.86</ele>
        <time>2021-10-06T13:38:57Z</time>
      </trkpt>
      <trkpt lat="44.63013" lon="1.99332">
        <ele>206.34</ele>
        <time>2021-10-06T13:39:06Z</time>
      </trkpt>
      <trkpt lat="44.63063" lon="1.99372">
        <ele>206.82</ele>
        <time>2021-10-06T13:39:22Z</time>
      </trkpt>
      <trkpt lat="44.63112" lon="1.99406">
        <ele>206.82</ele>
        <time>2021-10-06T13:39:38Z</time>
      </trkpt>
      <trkpt lat="44.63151" lon="1.99447">
        <ele>206.82</ele>
        <time>2021-10-06T13:39:52Z</time>
      </trkpt>
      <trkpt lat="44.63208" lon="1.99471">
        <ele>207.3</ele>
        <time>2021-10-06T13:40:10Z</time>
      </trkpt>
      <trkpt lat="44.63252" lon="1.99493">
        <ele>207.3</ele>
        <time>2021-10-06T13:40:24Z</time>
      </trkpt>
      <trkpt lat="44.63276" lon="1.99535">
        <ele>207.78</ele>
        <time>2021-10-06T13:40:37Z</time>
      </trkpt>
      <trkpt lat="44.63306" lon="1.99584">
        <ele>208.74</ele>
        <time>2021-10-06T13:40:52Z</time>
      </trkpt>
      <trkpt lat="44.63328" lon="1.99628">
        <ele>210.67</ele>
        <time>2021-10-06T13:41:08Z</time>
      </trkpt>
      <trkpt lat="44.63346" lon="1.99665">
        <ele>212.11</ele>
        <time>2021-10-06T13:41:22Z</time>
      </trkpt>
      <trkpt lat="44.63373" lon="1.99704">
        <ele>214.03</ele>
        <time>2021-10-06T13:41:38Z</time>
      </trkpt>
      <trkpt lat="44.63393" lon="1.99711">
        <ele>214.99</ele>
        <time>2021-10-06T13:41:52Z</time>
      </trkpt>
      <trkpt lat="44.63396" lon="1.99711">
        <ele>214.03</ele>
        <time>2021-10-06T13:41:53Z</time>
      </trkpt>
      <trkpt lat="44.63418" lon="1.99706">
        <ele>213.55</ele>
        <time>2021-10-06T13:42:07Z</time>
      </trkpt>
      <trkpt lat="44.63431" lon="1.99704">
        <ele>212.59</ele>
        <time>2021-10-06T13:42:18Z</time>
      </trkpt>
      <trkpt lat="44.63435" lon="1.99703">
        <ele>212.59</ele>
        <time>2021-10-06T13:42:37Z</time>
      </trkpt>
      <trkpt lat="44.63436" lon="1.99701">
        <ele>212.59</ele>
        <time>2021-10-06T13:42:51Z</time>
      </trkpt>
      <trkpt lat="44.63437" lon="1.99701">
        <ele>212.59</ele>
        <time>2021-10-06T13:42:53Z</time>
      </trkpt>
      <trkpt lat="44.63443" lon="1.99701">
        <ele>213.55</ele>
        <time>2021-10-06T13:42:59Z</time>
      </trkpt>
      <trkpt lat="44.63462" lon="1.99699">
        <ele>215.95</ele>
        <time>2021-10-06T13:43:14Z</time>
      </trkpt>
      <trkpt lat="44.6348" lon="1.99696">
        <ele>216.91</ele>
        <time>2021-10-06T13:43:27Z</time>
      </trkpt>
      <trkpt lat="44.63483" lon="1.99697">
        <ele>218.84</ele>
        <time>2021-10-06T13:43:32Z</time>
      </trkpt>
      <trkpt lat="44.63483" lon="1.99697">
        <ele>217.4</ele>
        <time>2021-10-06T13:43:34Z</time>
      </trkpt>
      <trkpt lat="44.63486" lon="1.99697">
        <ele>217.4</ele>
        <time>2021-10-06T13:43:48Z</time>
      </trkpt>
      <trkpt lat="44.6349" lon="1.99698">
        <ele>218.36</ele>
        <time>2021-10-06T13:43:56Z</time>
      </trkpt>
      <trkpt lat="44.63494" lon="1.99699">
        <ele>218.84</ele>
        <time>2021-10-06T13:44:14Z</time>
      </trkpt>
      <trkpt lat="44.63501" lon="1.99702">
        <ele>221.24</ele>
        <time>2021-10-06T13:44:28Z</time>
      </trkpt>
      <trkpt lat="44.63506" lon="1.99704">
        <ele>222.68</ele>
        <time>2021-10-06T13:44:41Z</time>
      </trkpt>
      <trkpt lat="44.63512" lon="1.9971">
        <ele>224.61</ele>
        <time>2021-10-06T13:44:56Z</time>
      </trkpt>
      <trkpt lat="44.63508" lon="1.99719">
        <ele>227.01</ele>
        <time>2021-10-06T13:45:13Z</time>
      </trkpt>
      <trkpt lat="44.63501" lon="1.99728">
        <ele>228.45</ele>
        <time>2021-10-06T13:45:30Z</time>
      </trkpt>
      <trkpt lat="44.63492" lon="1.99739">
        <ele>230.37</ele>
        <time>2021-10-06T13:45:49Z</time>
      </trkpt>
      <trkpt lat="44.63484" lon="1.99747">
        <ele>232.3</ele>
        <time>2021-10-06T13:46:05Z</time>
      </trkpt>
      <trkpt lat="44.63474" lon="1.99755">
        <ele>234.22</ele>
        <time>2021-10-06T13:46:21Z</time>
      </trkpt>
      <trkpt lat="44.63464" lon="1.99763">
        <ele>235.18</ele>
        <time>2021-10-06T13:46:37Z</time>
      </trkpt>
      <trkpt lat="44.63454" lon="1.99769">
        <ele>236.62</ele>
        <time>2021-10-06T13:46:53Z</time>
      </trkpt>
      <trkpt lat="44.63446" lon="1.99773">
        <ele>238.06</ele>
        <time>2021-10-06T13:47:07Z</time>
      </trkpt>
      <trkpt lat="44.63445" lon="1.99773">
        <ele>238.06</ele>
        <time>2021-10-06T13:47:08Z</time>
      </trkpt>
      <trkpt lat="44.63444" lon="1.99774">
        <ele>238.06</ele>
        <time>2021-10-06T13:47:09Z</time>
      </trkpt>
      <trkpt lat="44.63443" lon="1.99775">
        <ele>238.06</ele>
        <time>2021-10-06T13:47:10Z</time>
      </trkpt>
      <trkpt lat="44.63442" lon="1.99776">
        <ele>238.06</ele>
        <time>2021-10-06T13:47:11Z</time>
      </trkpt>
      <trkpt lat="44.6344" lon="1.99777">
        <ele>238.06</ele>
        <time>2021-10-06T13:47:12Z</time>
      </trkpt>
      <trkpt lat="44.63439" lon="1.99777">
        <ele>238.06</ele>
        <time>2021-10-06T13:47:13Z</time>
      </trkpt>
      <trkpt lat="44.63429" lon="1.99784">
        <ele>239.02</ele>
        <time>2021-10-06T13:47:21Z</time>
      </trkpt>
      <trkpt lat="44.63411" lon="1.998">
        <ele>240.95</ele>
        <time>2021-10-06T13:47:38Z</time>
      </trkpt>
      <trkpt lat="44.63405" lon="1.99811">
        <ele>241.91</ele>
        <time>2021-10-06T13:47:51Z</time>
      </trkpt>
      <trkpt lat="44.63401" lon="1.99819">
        <ele>243.35</ele>
        <time>2021-10-06T13:48:01Z</time>
      </trkpt>
      <trkpt lat="44.63397" lon="1.99828">
        <ele>246.23</ele>
        <time>2021-10-06T13:48:15Z</time>
      </trkpt>
      <trkpt lat="44.63392" lon="1.99839">
        <ele>247.68</ele>
        <time>2021-10-06T13:48:31Z</time>
      </trkpt>
      <trkpt lat="44.63388" lon="1.99852">
        <ele>249.6</ele>
        <time>2021-10-06T13:48:47Z</time>
      </trkpt>
      <trkpt lat="44.63383" lon="1.99865">
        <ele>251.52</ele>
        <time>2021-10-06T13:49:04Z</time>
      </trkpt>
      <trkpt lat="44.63379" lon="1.99877">
        <ele>253.93</ele>
        <time>2021-10-06T13:49:19Z</time>
      </trkpt>
      <trkpt lat="44.63376" lon="1.99888">
        <ele>256.33</ele>
        <time>2021-10-06T13:49:35Z</time>
      </trkpt>
      <trkpt lat="44.63375" lon="1.99901">
        <ele>259.21</ele>
        <time>2021-10-06T13:49:53Z</time>
      </trkpt>
      <trkpt lat="44.63378" lon="1.99909">
        <ele>260.65</ele>
        <time>2021-10-06T13:50:07Z</time>
      </trkpt>
      <trkpt lat="44.6338" lon="1.99912">
        <ele>262.58</ele>
        <time>2021-10-06T13:50:18Z</time>
      </trkpt>
      <trkpt lat="44.63385" lon="1.99917">
        <ele>264.5</ele>
        <time>2021-10-06T13:50:31Z</time>
      </trkpt>
      <trkpt lat="44.63392" lon="1.99925">
        <ele>265.94</ele>
        <time>2021-10-06T13:50:46Z</time>
      </trkpt>
      <trkpt lat="44.63394" lon="1.99931">
        <ele>266.9</ele>
        <time>2021-10-06T13:51:03Z</time>
      </trkpt>
      <trkpt lat="44.63394" lon="1.99931">
        <ele>267.38</ele>
        <time>2021-10-06T13:51:24Z</time>
      </trkpt>
      <trkpt lat="44.63395" lon="1.9993">
        <ele>267.38</ele>
        <time>2021-10-06T13:51:49Z</time>
      </trkpt>
      <trkpt lat="44.63395" lon="1.99931">
        <ele>267.86</ele>
        <time>2021-10-06T13:52:13Z</time>
      </trkpt>
      <trkpt lat="44.63393" lon="1.99926">
        <ele>267.86</ele>
        <time>2021-10-06T13:52:43Z</time>
      </trkpt>
      <trkpt lat="44.63394" lon="1.99931">
        <ele>267.86</ele>
        <time>2021-10-06T13:53:11Z</time>
      </trkpt>
      <trkpt lat="44.63394" lon="1.99931">
        <ele>267.86</ele>
        <time>2021-10-06T13:53:41Z</time>
      </trkpt>
      <trkpt lat="44.63394" lon="1.99929">
        <ele>267.86</ele>
        <time>2021-10-06T13:54:09Z</time>
      </trkpt>
      <trkpt lat="44.63392" lon="1.99929">
        <ele>267.86</ele>
        <time>2021-10-06T13:54:22Z</time>
      </trkpt>
      <trkpt lat="44.63395" lon="1.99929">
        <ele>267.86</ele>
        <time>2021-10-06T13:54:56Z</time>
      </trkpt>
      <trkpt lat="44.63394" lon="1.99931">
        <ele>267.86</ele>
        <time>2021-10-06T13:55:22Z</time>
      </trkpt>
      <trkpt lat="44.63393" lon="1.99927">
        <ele>267.86</ele>
        <time>2021-10-06T13:55:49Z</time>
      </trkpt>
      <trkpt lat="44.63393" lon="1.99932">
        <ele>267.86</ele>
        <time>2021-10-06T13:56:23Z</time>
      </trkpt>
      <trkpt lat="44.63396" lon="1.99928">
        <ele>268.35</ele>
        <time>2021-10-06T13:56:44Z</time>
      </trkpt>
      <trkpt lat="44.63399" lon="1.99935">
        <ele>268.83</ele>
        <time>2021-10-06T13:56:56Z</time>
      </trkpt>
      <trkpt lat="44.63403" lon="1.99946">
        <ele>270.27</ele>
        <time>2021-10-06T13:57:09Z</time>
      </trkpt>
      <trkpt lat="44.63409" lon="1.99961">
        <ele>272.19</ele>
        <time>2021-10-06T13:57:25Z</time>
      </trkpt>
      <trkpt lat="44.63416" lon="1.99978">
        <ele>273.63</ele>
        <time>2021-10-06T13:57:42Z</time>
      </trkpt>
      <trkpt lat="44.63421" lon="1.99996">
        <ele>275.56</ele>
        <time>2021-10-06T13:57:58Z</time>
      </trkpt>
      <trkpt lat="44.63426" lon="2.00007">
        <ele>276.52</ele>
        <time>2021-10-06T13:58:09Z</time>
      </trkpt>
      <trkpt lat="44.63437" lon="2.00025">
        <ele>277.48</ele>
        <time>2021-10-06T13:58:28Z</time>
      </trkpt>
      <trkpt lat="44.63445" lon="2.00036">
        <ele>278.92</ele>
        <time>2021-10-06T13:58:41Z</time>
      </trkpt>
      <trkpt lat="44.63456" lon="2.00047">
        <ele>280.36</ele>
        <time>2021-10-06T13:58:56Z</time>
      </trkpt>
      <trkpt lat="44.63464" lon="2.00061">
        <ele>281.8</ele>
        <time>2021-10-06T13:59:10Z</time>
      </trkpt>
      <trkpt lat="44.6347" lon="2.00075">
        <ele>283.73</ele>
        <time>2021-10-06T13:59:26Z</time>
      </trkpt>
      <trkpt lat="44.63475" lon="2.00096">
        <ele>285.17</ele>
        <time>2021-10-06T13:59:42Z</time>
      </trkpt>
      <trkpt lat="44.6348" lon="2.00116">
        <ele>287.57</ele>
        <time>2021-10-06T13:59:59Z</time>
      </trkpt>
      <trkpt lat="44.63482" lon="2.0013">
        <ele>288.05</ele>
        <time>2021-10-06T14:00:14Z</time>
      </trkpt>
      <trkpt lat="44.63491" lon="2.00149">
        <ele>289.49</ele>
        <time>2021-10-06T14:00:26Z</time>
      </trkpt>
      <trkpt lat="44.63494" lon="2.00152">
        <ele>289.97</ele>
        <time>2021-10-06T14:00:30Z</time>
      </trkpt>
      <trkpt lat="44.63509" lon="2.00164">
        <ele>291.9</ele>
        <time>2021-10-06T14:00:45Z</time>
      </trkpt>
      <trkpt lat="44.63509" lon="2.00165">
        <ele>291.9</ele>
        <time>2021-10-06T14:00:46Z</time>
      </trkpt>
      <trkpt lat="44.63519" lon="2.00194">
        <ele>292.86</ele>
        <time>2021-10-06T14:01:02Z</time>
      </trkpt>
      <trkpt lat="44.63519" lon="2.00223">
        <ele>293.34</ele>
        <time>2021-10-06T14:01:12Z</time>
      </trkpt>
      <trkpt lat="44.63523" lon="2.00232">
        <ele>293.34</ele>
        <time>2021-10-06T14:01:16Z</time>
      </trkpt>
      <trkpt lat="44.6354" lon="2.00256">
        <ele>295.74</ele>
        <time>2021-10-06T14:01:34Z</time>
      </trkpt>
      <trkpt lat="44.63543" lon="2.00261">
        <ele>296.22</ele>
        <time>2021-10-06T14:01:38Z</time>
      </trkpt>
      <trkpt lat="44.63558" lon="2.00275">
        <ele>299.11</ele>
        <time>2021-10-06T14:01:55Z</time>
      </trkpt>
      <trkpt lat="44.63558" lon="2.00277">
        <ele>298.63</ele>
        <time>2021-10-06T14:02:11Z</time>
      </trkpt>
      <trkpt lat="44.63556" lon="2.00281">
        <ele>298.63</ele>
        <time>2021-10-06T14:02:38Z</time>
      </trkpt>
      <trkpt lat="44.6356" lon="2.00279">
        <ele>298.63</ele>
        <time>2021-10-06T14:02:52Z</time>
      </trkpt>
      <trkpt lat="44.63554" lon="2.00285">
        <ele>298.63</ele>
        <time>2021-10-06T14:03:12Z</time>
      </trkpt>
      <trkpt lat="44.63557" lon="2.00283">
        <ele>298.63</ele>
        <time>2021-10-06T14:03:38Z</time>
      </trkpt>
      <trkpt lat="44.63559" lon="2.00276">
        <ele>298.63</ele>
        <time>2021-10-06T14:04:04Z</time>
      </trkpt>
      <trkpt lat="44.63558" lon="2.00276">
        <ele>298.63</ele>
        <time>2021-10-06T14:04:23Z</time>
      </trkpt>
      <trkpt lat="44.63557" lon="2.00276">
        <ele>298.63</ele>
        <time>2021-10-06T14:04:51Z</time>
      </trkpt>
      <trkpt lat="44.63558" lon="2.00279">
        <ele>298.15</ele>
        <time>2021-10-06T14:05:16Z</time>
      </trkpt>
      <trkpt lat="44.63558" lon="2.00281">
        <ele>298.15</ele>
        <time>2021-10-06T14:05:37Z</time>
      </trkpt>
      <trkpt lat="44.63557" lon="2.00281">
        <ele>298.15</ele>
        <time>2021-10-06T14:06:00Z</time>
      </trkpt>
      <trkpt lat="44.63559" lon="2.00276">
        <ele>298.15</ele>
        <time>2021-10-06T14:06:20Z</time>
      </trkpt>
      <trkpt lat="44.6356" lon="2.00275">
        <ele>298.15</ele>
        <time>2021-10-06T14:06:42Z</time>
      </trkpt>
      <trkpt lat="44.6356" lon="2.00279">
        <ele>298.15</ele>
        <time>2021-10-06T14:07:04Z</time>
      </trkpt>
      <trkpt lat="44.63559" lon="2.00278">
        <ele>298.63</ele>
        <time>2021-10-06T14:07:27Z</time>
      </trkpt>
      <trkpt lat="44.63561" lon="2.00278">
        <ele>298.63</ele>
        <time>2021-10-06T14:07:42Z</time>
      </trkpt>
      <trkpt lat="44.63563" lon="2.00279">
        <ele>298.63</ele>
        <time>2021-10-06T14:07:57Z</time>
      </trkpt>
      <trkpt lat="44.63563" lon="2.0028">
        <ele>298.63</ele>
        <time>2021-10-06T14:07:58Z</time>
      </trkpt>
      <trkpt lat="44.63563" lon="2.00307">
        <ele>299.11</ele>
        <time>2021-10-06T14:08:13Z</time>
      </trkpt>
      <trkpt lat="44.63559" lon="2.0034">
        <ele>301.03</ele>
        <time>2021-10-06T14:08:30Z</time>
      </trkpt>
      <trkpt lat="44.63559" lon="2.00373">
        <ele>304.39</ele>
        <time>2021-10-06T14:08:46Z</time>
      </trkpt>
      <trkpt lat="44.63565" lon="2.00392">
        <ele>306.8</ele>
        <time>2021-10-06T14:08:58Z</time>
      </trkpt>
      <trkpt lat="44.63568" lon="2.00425">
        <ele>306.32</ele>
        <time>2021-10-06T14:09:14Z</time>
      </trkpt>
      <trkpt lat="44.63569" lon="2.00451">
        <ele>307.76</ele>
        <time>2021-10-06T14:09:26Z</time>
      </trkpt>
      <trkpt lat="44.63569" lon="2.00459">
        <ele>308.72</ele>
        <time>2021-10-06T14:09:29Z</time>
      </trkpt>
      <trkpt lat="44.63568" lon="2.00463">
        <ele>308.72</ele>
        <time>2021-10-06T14:09:30Z</time>
      </trkpt>
      <trkpt lat="44.63567" lon="2.00465">
        <ele>308.72</ele>
        <time>2021-10-06T14:09:31Z</time>
      </trkpt>
      <trkpt lat="44.63559" lon="2.00491">
        <ele>309.2</ele>
        <time>2021-10-06T14:09:45Z</time>
      </trkpt>
      <trkpt lat="44.6355" lon="2.00524">
        <ele>309.2</ele>
        <time>2021-10-06T14:09:59Z</time>
      </trkpt>
      <trkpt lat="44.6354" lon="2.00566">
        <ele>311.12</ele>
        <time>2021-10-06T14:10:19Z</time>
      </trkpt>
      <trkpt lat="44.6355" lon="2.00588">
        <ele>312.09</ele>
        <time>2021-10-06T14:10:32Z</time>
      </trkpt>
      <trkpt lat="44.63571" lon="2.00602">
        <ele>314.01</ele>
        <time>2021-10-06T14:10:46Z</time>
      </trkpt>
      <trkpt lat="44.63582" lon="2.00616">
        <ele>316.41</ele>
        <time>2021-10-06T14:10:56Z</time>
      </trkpt>
      <trkpt lat="44.63582" lon="2.00617">
        <ele>316.41</ele>
        <time>2021-10-06T14:10:57Z</time>
      </trkpt>
      <trkpt lat="44.63576" lon="2.00641">
        <ele>317.85</ele>
        <time>2021-10-06T14:11:12Z</time>
      </trkpt>
      <trkpt lat="44.63565" lon="2.00662">
        <ele>318.33</ele>
        <time>2021-10-06T14:11:27Z</time>
      </trkpt>
      <trkpt lat="44.63553" lon="2.0068">
        <ele>318.33</ele>
        <time>2021-10-06T14:11:42Z</time>
      </trkpt>
      <trkpt lat="44.63543" lon="2.00698">
        <ele>318.33</ele>
        <time>2021-10-06T14:11:53Z</time>
      </trkpt>
      <trkpt lat="44.6353" lon="2.00723">
        <ele>318.33</ele>
        <time>2021-10-06T14:12:08Z</time>
      </trkpt>
      <trkpt lat="44.63528" lon="2.0073">
        <ele>318.33</ele>
        <time>2021-10-06T14:12:12Z</time>
      </trkpt>
      <trkpt lat="44.63528" lon="2.00732">
        <ele>318.33</ele>
        <time>2021-10-06T14:12:13Z</time>
      </trkpt>
      <trkpt lat="44.63524" lon="2.0076">
        <ele>321.22</ele>
        <time>2021-10-06T14:12:30Z</time>
      </trkpt>
      <trkpt lat="44.63519" lon="2.00781">
        <ele>324.1</ele>
        <time>2021-10-06T14:12:45Z</time>
      </trkpt>
      <trkpt lat="44.63514" lon="2.00795">
        <ele>326.5</ele>
        <time>2021-10-06T14:12:58Z</time>
      </trkpt>
      <trkpt lat="44.63513" lon="2.00803">
        <ele>327.47</ele>
        <time>2021-10-06T14:13:11Z</time>
      </trkpt>
      <trkpt lat="44.6351" lon="2.00813">
        <ele>327.95</ele>
        <time>2021-10-06T14:13:25Z</time>
      </trkpt>
      <trkpt lat="44.63503" lon="2.00832">
        <ele>330.35</ele>
        <time>2021-10-06T14:13:40Z</time>
      </trkpt>
      <trkpt lat="44.63501" lon="2.0084">
        <ele>332.27</ele>
        <time>2021-10-06T14:13:52Z</time>
      </trkpt>
      <trkpt lat="44.63498" lon="2.0085">
        <ele>332.75</ele>
        <time>2021-10-06T14:14:06Z</time>
      </trkpt>
      <trkpt lat="44.63492" lon="2.0086">
        <ele>334.68</ele>
        <time>2021-10-06T14:14:21Z</time>
      </trkpt>
      <trkpt lat="44.63489" lon="2.00863">
        <ele>334.68</ele>
        <time>2021-10-06T14:14:27Z</time>
      </trkpt>
      <trkpt lat="44.63471" lon="2.00879">
        <ele>334.68</ele>
        <time>2021-10-06T14:14:43Z</time>
      </trkpt>
      <trkpt lat="44.63462" lon="2.00882">
        <ele>335.64</ele>
        <time>2021-10-06T14:14:56Z</time>
      </trkpt>
      <trkpt lat="44.63458" lon="2.00882">
        <ele>335.64</ele>
        <time>2021-10-06T14:15:07Z</time>
      </trkpt>
      <trkpt lat="44.63457" lon="2.0088">
        <ele>335.64</ele>
        <time>2021-10-06T14:15:37Z</time>
      </trkpt>
      <trkpt lat="44.63457" lon="2.00879">
        <ele>335.64</ele>
        <time>2021-10-06T14:16:14Z</time>
      </trkpt>
      <trkpt lat="44.63458" lon="2.00879">
        <ele>335.64</ele>
        <time>2021-10-06T14:16:47Z</time>
      </trkpt>
      <trkpt lat="44.63457" lon="2.00878">
        <ele>335.64</ele>
        <time>2021-10-06T14:17:25Z</time>
      </trkpt>
      <trkpt lat="44.63458" lon="2.00878">
        <ele>335.64</ele>
        <time>2021-10-06T14:17:54Z</time>
      </trkpt>
      <trkpt lat="44.63457" lon="2.00878">
        <ele>335.64</ele>
        <time>2021-10-06T14:18:29Z</time>
      </trkpt>
      <trkpt lat="44.63457" lon="2.00878">
        <ele>335.64</ele>
        <time>2021-10-06T14:19:03Z</time>
      </trkpt>
      <trkpt lat="44.63457" lon="2.00879">
        <ele>335.64</ele>
        <time>2021-10-06T14:19:38Z</time>
      </trkpt>
      <trkpt lat="44.63456" lon="2.00879">
        <ele>335.16</ele>
        <time>2021-10-06T14:20:19Z</time>
      </trkpt>
      <trkpt lat="44.63457" lon="2.00878">
        <ele>335.16</ele>
        <time>2021-10-06T14:20:43Z</time>
      </trkpt>
      <trkpt lat="44.63456" lon="2.00879">
        <ele>335.16</ele>
        <time>2021-10-06T14:21:11Z</time>
      </trkpt>
      <trkpt lat="44.63454" lon="2.00879">
        <ele>335.16</ele>
        <time>2021-10-06T14:21:23Z</time>
      </trkpt>
      <trkpt lat="44.63434" lon="2.00891">
        <ele>335.16</ele>
        <time>2021-10-06T14:21:38Z</time>
      </trkpt>
      <trkpt lat="44.63426" lon="2.00898">
        <ele>335.16</ele>
        <time>2021-10-06T14:21:44Z</time>
      </trkpt>
      <trkpt lat="44.63405" lon="2.00901">
        <ele>337.56</ele>
        <time>2021-10-06T14:22:02Z</time>
      </trkpt>
      <trkpt lat="44.6339" lon="2.00904">
        <ele>339.96</ele>
        <time>2021-10-06T14:22:18Z</time>
      </trkpt>
      <trkpt lat="44.63388" lon="2.00903">
        <ele>339.96</ele>
        <time>2021-10-06T14:22:20Z</time>
      </trkpt>
      <trkpt lat="44.63374" lon="2.00894">
        <ele>342.37</ele>
        <time>2021-10-06T14:22:35Z</time>
      </trkpt>
      <trkpt lat="44.63361" lon="2.00884">
        <ele>345.73</ele>
        <time>2021-10-06T14:22:50Z</time>
      </trkpt>
      <trkpt lat="44.63347" lon="2.00885">
        <ele>348.62</ele>
        <time>2021-10-06T14:23:05Z</time>
      </trkpt>
      <trkpt lat="44.63346" lon="2.00885">
        <ele>349.1</ele>
        <time>2021-10-06T14:23:06Z</time>
      </trkpt>
      <trkpt lat="44.63327" lon="2.00885">
        <ele>351.5</ele>
        <time>2021-10-06T14:23:23Z</time>
      </trkpt>
      <trkpt lat="44.63314" lon="2.00885">
        <ele>353.9</ele>
        <time>2021-10-06T14:23:37Z</time>
      </trkpt>
      <trkpt lat="44.63305" lon="2.00881">
        <ele>355.34</ele>
        <time>2021-10-06T14:23:51Z</time>
      </trkpt>
      <trkpt lat="44.633" lon="2.00872">
        <ele>356.31</ele>
        <time>2021-10-06T14:24:04Z</time>
      </trkpt>
      <trkpt lat="44.63295" lon="2.00862">
        <ele>356.31</ele>
        <time>2021-10-06T14:24:14Z</time>
      </trkpt>
      <trkpt lat="44.63289" lon="2.00846">
        <ele>355.34</ele>
        <time>2021-10-06T14:24:29Z</time>
      </trkpt>
      <trkpt lat="44.63284" lon="2.00827">
        <ele>357.75</ele>
        <time>2021-10-06T14:24:45Z</time>
      </trkpt>
      <trkpt lat="44.63278" lon="2.00809">
        <ele>358.71</ele>
        <time>2021-10-06T14:25:02Z</time>
      </trkpt>
      <trkpt lat="44.63275" lon="2.00791">
        <ele>361.59</ele>
        <time>2021-10-06T14:25:22Z</time>
      </trkpt>
      <trkpt lat="44.63272" lon="2.00781">
        <ele>364.48</ele>
        <time>2021-10-06T14:25:37Z</time>
      </trkpt>
      <trkpt lat="44.63266" lon="2.00773">
        <ele>366.4</ele>
        <time>2021-10-06T14:25:53Z</time>
      </trkpt>
      <trkpt lat="44.6326" lon="2.00757">
        <ele>367.84</ele>
        <time>2021-10-06T14:26:08Z</time>
      </trkpt>
      <trkpt lat="44.63254" lon="2.0074">
        <ele>368.32</ele>
        <time>2021-10-06T14:26:23Z</time>
      </trkpt>
      <trkpt lat="44.63236" lon="2.00716">
        <ele>368.32</ele>
        <time>2021-10-06T14:26:37Z</time>
      </trkpt>
      <trkpt lat="44.6321" lon="2.00705">
        <ele>368.8</ele>
        <time>2021-10-06T14:26:50Z</time>
      </trkpt>
      <trkpt lat="44.63209" lon="2.00704">
        <ele>368.8</ele>
        <time>2021-10-06T14:26:51Z</time>
      </trkpt>
      <trkpt lat="44.63192" lon="2.00701">
        <ele>370.24</ele>
        <time>2021-10-06T14:27:02Z</time>
      </trkpt>
      <trkpt lat="44.63173" lon="2.00716">
        <ele>372.65</ele>
        <time>2021-10-06T14:27:17Z</time>
      </trkpt>
      <trkpt lat="44.63168" lon="2.00722">
        <ele>373.61</ele>
        <time>2021-10-06T14:27:22Z</time>
      </trkpt>
      <trkpt lat="44.63166" lon="2.00728">
        <ele>375.53</ele>
        <time>2021-10-06T14:27:26Z</time>
      </trkpt>
      <trkpt lat="44.63162" lon="2.00736">
        <ele>376.49</ele>
        <time>2021-10-06T14:27:38Z</time>
      </trkpt>
      <trkpt lat="44.63159" lon="2.00737">
        <ele>377.45</ele>
        <time>2021-10-06T14:27:56Z</time>
      </trkpt>
      <trkpt lat="44.6315" lon="2.00743">
        <ele>378.9</ele>
        <time>2021-10-06T14:28:11Z</time>
      </trkpt>
      <trkpt lat="44.63142" lon="2.00757">
        <ele>381.78</ele>
        <time>2021-10-06T14:28:32Z</time>
      </trkpt>
      <trkpt lat="44.63135" lon="2.00765">
        <ele>383.7</ele>
        <time>2021-10-06T14:28:47Z</time>
      </trkpt>
      <trkpt lat="44.63126" lon="2.00774">
        <ele>385.63</ele>
        <time>2021-10-06T14:29:04Z</time>
      </trkpt>
      <trkpt lat="44.63121" lon="2.00786">
        <ele>388.03</ele>
        <time>2021-10-06T14:29:20Z</time>
      </trkpt>
      <trkpt lat="44.63114" lon="2.00798">
        <ele>388.51</ele>
        <time>2021-10-06T14:29:36Z</time>
      </trkpt>
      <trkpt lat="44.63107" lon="2.00803">
        <ele>389.47</ele>
        <time>2021-10-06T14:29:52Z</time>
      </trkpt>
      <trkpt lat="44.63109" lon="2.00802">
        <ele>389.95</ele>
        <time>2021-10-06T14:30:24Z</time>
      </trkpt>
      <trkpt lat="44.63107" lon="2.00802">
        <ele>389.95</ele>
        <time>2021-10-06T14:30:53Z</time>
      </trkpt>
      <trkpt lat="44.63107" lon="2.00803">
        <ele>389.95</ele>
        <time>2021-10-06T14:31:09Z</time>
      </trkpt>
      <trkpt lat="44.63105" lon="2.00801">
        <ele>389.95</ele>
        <time>2021-10-06T14:31:27Z</time>
      </trkpt>
      <trkpt lat="44.63105" lon="2.00801">
        <ele>389.95</ele>
        <time>2021-10-06T14:31:41Z</time>
      </trkpt>
      <trkpt lat="44.63105" lon="2.008">
        <ele>389.95</ele>
        <time>2021-10-06T14:31:58Z</time>
      </trkpt>
      <trkpt lat="44.63104" lon="2.008">
        <ele>388.51</ele>
        <time>2021-10-06T14:32:24Z</time>
      </trkpt>
      <trkpt lat="44.63105" lon="2.00801">
        <ele>388.51</ele>
        <time>2021-10-06T14:32:43Z</time>
      </trkpt>
      <trkpt lat="44.63105" lon="2.008">
        <ele>388.51</ele>
        <time>2021-10-06T14:33:08Z</time>
      </trkpt>
      <trkpt lat="44.63104" lon="2.008">
        <ele>388.51</ele>
        <time>2021-10-06T14:33:11Z</time>
      </trkpt>
      <trkpt lat="44.63098" lon="2.00791">
        <ele>388.51</ele>
        <time>2021-10-06T14:33:16Z</time>
      </trkpt>
      <trkpt lat="44.63083" lon="2.00786">
        <ele>387.55</ele>
        <time>2021-10-06T14:33:21Z</time>
      </trkpt>
      <trkpt lat="44.63072" lon="2.00776">
        <ele>387.07</ele>
        <time>2021-10-06T14:33:25Z</time>
      </trkpt>
      <trkpt lat="44.63042" lon="2.00769">
        <ele>384.66</ele>
        <time>2021-10-06T14:33:34Z</time>
      </trkpt>
      <trkpt lat="44.63026" lon="2.00739">
        <ele>380.82</ele>
        <time>2021-10-06T14:33:43Z</time>
      </trkpt>
      <trkpt lat="44.63012" lon="2.00727">
        <ele>378.9</ele>
        <time>2021-10-06T14:33:46Z</time>
      </trkpt>
      <trkpt lat="44.62998" lon="2.00712">
        <ele>377.45</ele>
        <time>2021-10-06T14:33:49Z</time>
      </trkpt>
      <trkpt lat="44.62994" lon="2.00706">
        <ele>377.45</ele>
        <time>2021-10-06T14:33:50Z</time>
      </trkpt>
      <trkpt lat="44.6299" lon="2.00699">
        <ele>376.01</ele>
        <time>2021-10-06T14:33:51Z</time>
      </trkpt>
      <trkpt lat="44.62987" lon="2.00692">
        <ele>375.05</ele>
        <time>2021-10-06T14:33:52Z</time>
      </trkpt>
      <trkpt lat="44.62985" lon="2.00682">
        <ele>374.09</ele>
        <time>2021-10-06T14:33:53Z</time>
      </trkpt>
      <trkpt lat="44.62983" lon="2.00672">
        <ele>373.13</ele>
        <time>2021-10-06T14:33:54Z</time>
      </trkpt>
      <trkpt lat="44.62981" lon="2.00662">
        <ele>372.17</ele>
        <time>2021-10-06T14:33:55Z</time>
      </trkpt>
      <trkpt lat="44.62978" lon="2.00653">
        <ele>371.21</ele>
        <time>2021-10-06T14:33:56Z</time>
      </trkpt>
      <trkpt lat="44.62975" lon="2.00646">
        <ele>370.24</ele>
        <time>2021-10-06T14:33:57Z</time>
      </trkpt>
      <trkpt lat="44.62972" lon="2.0064">
        <ele>369.76</ele>
        <time>2021-10-06T14:33:58Z</time>
      </trkpt>
      <trkpt lat="44.62971" lon="2.00633">
        <ele>369.28</ele>
        <time>2021-10-06T14:33:59Z</time>
      </trkpt>
      <trkpt lat="44.62972" lon="2.00626">
        <ele>369.28</ele>
        <time>2021-10-06T14:34:00Z</time>
      </trkpt>
      <trkpt lat="44.62975" lon="2.00619">
        <ele>368.32</ele>
        <time>2021-10-06T14:34:01Z</time>
      </trkpt>
      <trkpt lat="44.62978" lon="2.00613">
        <ele>368.32</ele>
        <time>2021-10-06T14:34:02Z</time>
      </trkpt>
      <trkpt lat="44.62983" lon="2.00599">
        <ele>366.4</ele>
        <time>2021-10-06T14:34:04Z</time>
      </trkpt>
      <trkpt lat="44.62984" lon="2.0059">
        <ele>365.44</ele>
        <time>2021-10-06T14:34:05Z</time>
      </trkpt>
      <trkpt lat="44.62984" lon="2.00581">
        <ele>364.96</ele>
        <time>2021-10-06T14:34:06Z</time>
      </trkpt>
      <trkpt lat="44.62982" lon="2.00571">
        <ele>364.48</ele>
        <time>2021-10-06T14:34:07Z</time>
      </trkpt>
      <trkpt lat="44.62978" lon="2.00562">
        <ele>363.52</ele>
        <time>2021-10-06T14:34:08Z</time>
      </trkpt>
      <trkpt lat="44.62973" lon="2.00554">
        <ele>363.52</ele>
        <time>2021-10-06T14:34:09Z</time>
      </trkpt>
      <trkpt lat="44.62968" lon="2.00545">
        <ele>362.55</ele>
        <time>2021-10-06T14:34:10Z</time>
      </trkpt>
      <trkpt lat="44.6295" lon="2.00512">
        <ele>360.15</ele>
        <time>2021-10-06T14:34:14Z</time>
      </trkpt>
      <trkpt lat="44.62941" lon="2.005">
        <ele>358.71</ele>
        <time>2021-10-06T14:34:16Z</time>
      </trkpt>
      <trkpt lat="44.62939" lon="2.00491">
        <ele>357.75</ele>
        <time>2021-10-06T14:34:17Z</time>
      </trkpt>
      <trkpt lat="44.62938" lon="2.00482">
        <ele>356.79</ele>
        <time>2021-10-06T14:34:18Z</time>
      </trkpt>
      <trkpt lat="44.62938" lon="2.00472">
        <ele>355.34</ele>
        <time>2021-10-06T14:34:19Z</time>
      </trkpt>
      <trkpt lat="44.62938" lon="2.00462">
        <ele>355.34</ele>
        <time>2021-10-06T14:34:20Z</time>
      </trkpt>
      <trkpt lat="44.62937" lon="2.00452">
        <ele>354.86</ele>
        <time>2021-10-06T14:34:21Z</time>
      </trkpt>
      <trkpt lat="44.62936" lon="2.00445">
        <ele>354.38</ele>
        <time>2021-10-06T14:34:22Z</time>
      </trkpt>
      <trkpt lat="44.62933" lon="2.00439">
        <ele>353.42</ele>
        <time>2021-10-06T14:34:23Z</time>
      </trkpt>
      <trkpt lat="44.62928" lon="2.00435">
        <ele>352.94</ele>
        <time>2021-10-06T14:34:24Z</time>
      </trkpt>
      <trkpt lat="44.62923" lon="2.00434">
        <ele>352.94</ele>
        <time>2021-10-06T14:34:25Z</time>
      </trkpt>
      <trkpt lat="44.62917" lon="2.00435">
        <ele>352.46</ele>
        <time>2021-10-06T14:34:26Z</time>
      </trkpt>
      <trkpt lat="44.62912" lon="2.00437">
        <ele>352.46</ele>
        <time>2021-10-06T14:34:27Z</time>
      </trkpt>
      <trkpt lat="44.62876" lon="2.00444">
        <ele>350.06</ele>
        <time>2021-10-06T14:34:33Z</time>
      </trkpt>
      <trkpt lat="44.62869" lon="2.00445">
        <ele>350.06</ele>
        <time>2021-10-06T14:34:34Z</time>
      </trkpt>
      <trkpt lat="44.62849" lon="2.00448">
        <ele>348.62</ele>
        <time>2021-10-06T14:34:37Z</time>
      </trkpt>
      <trkpt lat="44.62843" lon="2.00447">
        <ele>348.62</ele>
        <time>2021-10-06T14:34:38Z</time>
      </trkpt>
      <trkpt lat="44.62833" lon="2.00446">
        <ele>346.69</ele>
        <time>2021-10-06T14:34:40Z</time>
      </trkpt>
      <trkpt lat="44.62828" lon="2.00445">
        <ele>346.21</ele>
        <time>2021-10-06T14:34:41Z</time>
      </trkpt>
      <trkpt lat="44.62823" lon="2.00443">
        <ele>346.21</ele>
        <time>2021-10-06T14:34:42Z</time>
      </trkpt>
      <trkpt lat="44.62819" lon="2.00439">
        <ele>344.77</ele>
        <time>2021-10-06T14:34:43Z</time>
      </trkpt>
      <trkpt lat="44.62815" lon="2.00434">
        <ele>344.77</ele>
        <time>2021-10-06T14:34:44Z</time>
      </trkpt>
      <trkpt lat="44.62811" lon="2.00429">
        <ele>343.81</ele>
        <time>2021-10-06T14:34:45Z</time>
      </trkpt>
      <trkpt lat="44.62806" lon="2.00423">
        <ele>342.85</ele>
        <time>2021-10-06T14:34:46Z</time>
      </trkpt>
      <trkpt lat="44.62801" lon="2.0042">
        <ele>342.37</ele>
        <time>2021-10-06T14:34:47Z</time>
      </trkpt>
      <trkpt lat="44.62784" lon="2.0041">
        <ele>340.92</ele>
        <time>2021-10-06T14:34:50Z</time>
      </trkpt>
      <trkpt lat="44.6277" lon="2.00403">
        <ele>340.44</ele>
        <time>2021-10-06T14:34:52Z</time>
      </trkpt>
      <trkpt lat="44.62765" lon="2.00399">
        <ele>339</ele>
        <time>2021-10-06T14:34:53Z</time>
      </trkpt>
      <trkpt lat="44.62744" lon="2.00378">
        <ele>337.08</ele>
        <time>2021-10-06T14:34:57Z</time>
      </trkpt>
      <trkpt lat="44.6272" lon="2.00353">
        <ele>334.2</ele>
        <time>2021-10-06T14:35:03Z</time>
      </trkpt>
      <trkpt lat="44.62707" lon="2.00328">
        <ele>331.31</ele>
        <time>2021-10-06T14:35:15Z</time>
      </trkpt>
      <trkpt lat="44.62687" lon="2.003">
        <ele>330.83</ele>
        <time>2021-10-06T14:35:29Z</time>
      </trkpt>
      <trkpt lat="44.62654" lon="2.00257">
        <ele>329.39</ele>
        <time>2021-10-06T14:35:42Z</time>
      </trkpt>
      <trkpt lat="44.62636" lon="2.00232">
        <ele>329.87</ele>
        <time>2021-10-06T14:35:52Z</time>
      </trkpt>
      <trkpt lat="44.62619" lon="2.00206">
        <ele>329.39</ele>
        <time>2021-10-06T14:36:09Z</time>
      </trkpt>
      <trkpt lat="44.6261" lon="2.00157">
        <ele>330.83</ele>
        <time>2021-10-06T14:36:22Z</time>
      </trkpt>
      <trkpt lat="44.62594" lon="2.00106">
        <ele>333.23</ele>
        <time>2021-10-06T14:36:36Z</time>
      </trkpt>
      <trkpt lat="44.6256" lon="2.00101">
        <ele>334.68</ele>
        <time>2021-10-06T14:36:48Z</time>
      </trkpt>
      <trkpt lat="44.62522" lon="2.00101">
        <ele>336.6</ele>
        <time>2021-10-06T14:37:01Z</time>
      </trkpt>
      <trkpt lat="44.62485" lon="2.00106">
        <ele>338.52</ele>
        <time>2021-10-06T14:37:15Z</time>
      </trkpt>
      <trkpt lat="44.62455" lon="2.0011">
        <ele>336.12</ele>
        <time>2021-10-06T14:37:29Z</time>
      </trkpt>
      <trkpt lat="44.6244" lon="2.0011">
        <ele>335.64</ele>
        <time>2021-10-06T14:37:44Z</time>
      </trkpt>
      <trkpt lat="44.62407" lon="2.00106">
        <ele>333.23</ele>
        <time>2021-10-06T14:37:54Z</time>
      </trkpt>
      <trkpt lat="44.62397" lon="2.00105">
        <ele>332.27</ele>
        <time>2021-10-06T14:37:56Z</time>
      </trkpt>
      <trkpt lat="44.62392" lon="2.00106">
        <ele>331.79</ele>
        <time>2021-10-06T14:37:57Z</time>
      </trkpt>
      <trkpt lat="44.62388" lon="2.00106">
        <ele>330.83</ele>
        <time>2021-10-06T14:37:58Z</time>
      </trkpt>
      <trkpt lat="44.62383" lon="2.00105">
        <ele>330.83</ele>
        <time>2021-10-06T14:37:59Z</time>
      </trkpt>
      <trkpt lat="44.62379" lon="2.00101">
        <ele>330.35</ele>
        <time>2021-10-06T14:38:00Z</time>
      </trkpt>
      <trkpt lat="44.62376" lon="2.00096">
        <ele>330.35</ele>
        <time>2021-10-06T14:38:01Z</time>
      </trkpt>
      <trkpt lat="44.62374" lon="2.0009">
        <ele>329.87</ele>
        <time>2021-10-06T14:38:02Z</time>
      </trkpt>
      <trkpt lat="44.62372" lon="2.00084">
        <ele>329.39</ele>
        <time>2021-10-06T14:38:03Z</time>
      </trkpt>
      <trkpt lat="44.6237" lon="2.00078">
        <ele>329.39</ele>
        <time>2021-10-06T14:38:04Z</time>
      </trkpt>
      <trkpt lat="44.62368" lon="2.00072">
        <ele>329.39</ele>
        <time>2021-10-06T14:38:05Z</time>
      </trkpt>
      <trkpt lat="44.62366" lon="2.00067">
        <ele>329.39</ele>
        <time>2021-10-06T14:38:06Z</time>
      </trkpt>
      <trkpt lat="44.62329" lon="2.00016">
        <ele>329.39</ele>
        <time>2021-10-06T14:38:20Z</time>
      </trkpt>
      <trkpt lat="44.62306" lon="2.00008">
        <ele>329.39</ele>
        <time>2021-10-06T14:38:26Z</time>
      </trkpt>
      <trkpt lat="44.62245" lon="2.00001">
        <ele>326.99</ele>
        <time>2021-10-06T14:38:37Z</time>
      </trkpt>
      <trkpt lat="44.62221" lon="1.99991">
        <ele>326.5</ele>
        <time>2021-10-06T14:38:42Z</time>
      </trkpt>
      <trkpt lat="44.62217" lon="1.99988">
        <ele>326.5</ele>
        <time>2021-10-06T14:38:43Z</time>
      </trkpt>
      <trkpt lat="44.62159" lon="1.99965">
        <ele>326.02</ele>
        <time>2021-10-06T14:38:58Z</time>
      </trkpt>
      <trkpt lat="44.6215" lon="1.99971">
        <ele>326.02</ele>
        <time>2021-10-06T14:39:01Z</time>
      </trkpt>
      <trkpt lat="44.62148" lon="1.99974">
        <ele>326.02</ele>
        <time>2021-10-06T14:39:02Z</time>
      </trkpt>
      <trkpt lat="44.62145" lon="1.99977">
        <ele>326.02</ele>
        <time>2021-10-06T14:39:03Z</time>
      </trkpt>
      <trkpt lat="44.62144" lon="1.99978">
        <ele>326.02</ele>
        <time>2021-10-06T14:39:04Z</time>
      </trkpt>
      <trkpt lat="44.62141" lon="1.99978">
        <ele>326.02</ele>
        <time>2021-10-06T14:39:05Z</time>
      </trkpt>
      <trkpt lat="44.62139" lon="1.99977">
        <ele>326.02</ele>
        <time>2021-10-06T14:39:06Z</time>
      </trkpt>
      <trkpt lat="44.62137" lon="1.99975">
        <ele>325.54</ele>
        <time>2021-10-06T14:39:07Z</time>
      </trkpt>
      <trkpt lat="44.62135" lon="1.99972">
        <ele>325.54</ele>
        <time>2021-10-06T14:39:08Z</time>
      </trkpt>
      <trkpt lat="44.62124" lon="1.99935">
        <ele>324.1</ele>
        <time>2021-10-06T14:39:18Z</time>
      </trkpt>
      <trkpt lat="44.62102" lon="1.99887">
        <ele>322.66</ele>
        <time>2021-10-06T14:39:31Z</time>
      </trkpt>
      <trkpt lat="44.62076" lon="1.99896">
        <ele>322.18</ele>
        <time>2021-10-06T14:39:42Z</time>
      </trkpt>
      <trkpt lat="44.62036" lon="1.99921">
        <ele>321.7</ele>
        <time>2021-10-06T14:39:59Z</time>
      </trkpt>
      <trkpt lat="44.62021" lon="1.99931">
        <ele>321.7</ele>
        <time>2021-10-06T14:40:09Z</time>
      </trkpt>
      <trkpt lat="44.62003" lon="1.99929">
        <ele>319.3</ele>
        <time>2021-10-06T14:40:18Z</time>
      </trkpt>
      <trkpt lat="44.61998" lon="1.99933">
        <ele>318.81</ele>
        <time>2021-10-06T14:40:20Z</time>
      </trkpt>
      <trkpt lat="44.62001" lon="1.99947">
        <ele>318.81</ele>
        <time>2021-10-06T14:40:29Z</time>
      </trkpt>
      <trkpt lat="44.62003" lon="1.99945">
        <ele>318.81</ele>
        <time>2021-10-06T14:40:30Z</time>
      </trkpt>
      <trkpt lat="44.62008" lon="1.99932">
        <ele>320.74</ele>
        <time>2021-10-06T14:40:36Z</time>
      </trkpt>
      <trkpt lat="44.62006" lon="1.99927">
        <ele>319.3</ele>
        <time>2021-10-06T14:40:39Z</time>
      </trkpt>
      <trkpt lat="44.62004" lon="1.99928">
        <ele>319.3</ele>
        <time>2021-10-06T14:40:40Z</time>
      </trkpt>
      <trkpt lat="44.61993" lon="1.99945">
        <ele>318.33</ele>
        <time>2021-10-06T14:40:48Z</time>
      </trkpt>
      <trkpt lat="44.61998" lon="1.99962">
        <ele>318.33</ele>
        <time>2021-10-06T14:40:56Z</time>
      </trkpt>
      <trkpt lat="44.62002" lon="1.99975">
        <ele>318.33</ele>
        <time>2021-10-06T14:41:01Z</time>
      </trkpt>
      <trkpt lat="44.62004" lon="1.99978">
        <ele>319.78</ele>
        <time>2021-10-06T14:41:03Z</time>
      </trkpt>
      <trkpt lat="44.62005" lon="1.99992">
        <ele>319.78</ele>
        <time>2021-10-06T14:41:10Z</time>
      </trkpt>
      <trkpt lat="44.62002" lon="1.99999">
        <ele>319.78</ele>
        <time>2021-10-06T14:41:13Z</time>
      </trkpt>
      <trkpt lat="44.61973" lon="2.00018">
        <ele>318.81</ele>
        <time>2021-10-06T14:41:25Z</time>
      </trkpt>
      <trkpt lat="44.6197" lon="2.0002">
        <ele>318.81</ele>
        <time>2021-10-06T14:41:26Z</time>
      </trkpt>
      <trkpt lat="44.61954" lon="2.00026">
        <ele>318.81</ele>
        <time>2021-10-06T14:41:30Z</time>
      </trkpt>
      <trkpt lat="44.6195" lon="2.00029">
        <ele>317.85</ele>
        <time>2021-10-06T14:41:31Z</time>
      </trkpt>
      <trkpt lat="44.61946" lon="2.00032">
        <ele>317.85</ele>
        <time>2021-10-06T14:41:32Z</time>
      </trkpt>
      <trkpt lat="44.61942" lon="2.00035">
        <ele>317.85</ele>
        <time>2021-10-06T14:41:33Z</time>
      </trkpt>
      <trkpt lat="44.61938" lon="2.0004">
        <ele>317.85</ele>
        <time>2021-10-06T14:41:34Z</time>
      </trkpt>
      <trkpt lat="44.61894" lon="2.00074">
        <ele>316.41</ele>
        <time>2021-10-06T14:41:44Z</time>
      </trkpt>
      <trkpt lat="44.61853" lon="2.00099">
        <ele>316.41</ele>
        <time>2021-10-06T14:41:56Z</time>
      </trkpt>
      <trkpt lat="44.6185" lon="2.00102">
        <ele>316.41</ele>
        <time>2021-10-06T14:41:57Z</time>
      </trkpt>
      <trkpt lat="44.61848" lon="2.00106">
        <ele>316.41</ele>
        <time>2021-10-06T14:41:58Z</time>
      </trkpt>
      <trkpt lat="44.61846" lon="2.00109">
        <ele>316.41</ele>
        <time>2021-10-06T14:41:59Z</time>
      </trkpt>
      <trkpt lat="44.61845" lon="2.00109">
        <ele>316.41</ele>
        <time>2021-10-06T14:42:00Z</time>
      </trkpt>
      <trkpt lat="44.61843" lon="2.00109">
        <ele>317.37</ele>
        <time>2021-10-06T14:42:01Z</time>
      </trkpt>
      <trkpt lat="44.6184" lon="2.00107">
        <ele>317.37</ele>
        <time>2021-10-06T14:42:02Z</time>
      </trkpt>
      <trkpt lat="44.61811" lon="2.0011">
        <ele>315.93</ele>
        <time>2021-10-06T14:42:11Z</time>
      </trkpt>
      <trkpt lat="44.61778" lon="2.00107">
        <ele>314.01</ele>
        <time>2021-10-06T14:42:20Z</time>
      </trkpt>
      <trkpt lat="44.61773" lon="2.00105">
        <ele>314.01</ele>
        <time>2021-10-06T14:42:21Z</time>
      </trkpt>
      <trkpt lat="44.61769" lon="2.00105">
        <ele>314.01</ele>
        <time>2021-10-06T14:42:22Z</time>
      </trkpt>
      <trkpt lat="44.61765" lon="2.00105">
        <ele>314.01</ele>
        <time>2021-10-06T14:42:23Z</time>
      </trkpt>
      <trkpt lat="44.61761" lon="2.00104">
        <ele>313.53</ele>
        <time>2021-10-06T14:42:24Z</time>
      </trkpt>
      <trkpt lat="44.61729" lon="2.00118">
        <ele>311.6</ele>
        <time>2021-10-06T14:42:34Z</time>
      </trkpt>
      <trkpt lat="44.61727" lon="2.00118">
        <ele>311.6</ele>
        <time>2021-10-06T14:42:35Z</time>
      </trkpt>
      <trkpt lat="44.61725" lon="2.00117">
        <ele>311.12</ele>
        <time>2021-10-06T14:42:36Z</time>
      </trkpt>
      <trkpt lat="44.61723" lon="2.00116">
        <ele>311.12</ele>
        <time>2021-10-06T14:42:37Z</time>
      </trkpt>
      <trkpt lat="44.6172" lon="2.00117">
        <ele>310.64</ele>
        <time>2021-10-06T14:42:38Z</time>
      </trkpt>
      <trkpt lat="44.61718" lon="2.00118">
        <ele>310.16</ele>
        <time>2021-10-06T14:42:39Z</time>
      </trkpt>
      <trkpt lat="44.61715" lon="2.0012">
        <ele>310.16</ele>
        <time>2021-10-06T14:42:40Z</time>
      </trkpt>
      <trkpt lat="44.61713" lon="2.00121">
        <ele>310.16</ele>
        <time>2021-10-06T14:42:41Z</time>
      </trkpt>
      <trkpt lat="44.617" lon="2.00132">
        <ele>308.72</ele>
        <time>2021-10-06T14:42:48Z</time>
      </trkpt>
      <trkpt lat="44.61698" lon="2.00133">
        <ele>308.72</ele>
        <time>2021-10-06T14:42:49Z</time>
      </trkpt>
      <trkpt lat="44.61696" lon="2.00134">
        <ele>308.72</ele>
        <time>2021-10-06T14:42:50Z</time>
      </trkpt>
      <trkpt lat="44.61695" lon="2.00136">
        <ele>308.72</ele>
        <time>2021-10-06T14:42:51Z</time>
      </trkpt>
      <trkpt lat="44.61694" lon="2.00139">
        <ele>308.24</ele>
        <time>2021-10-06T14:42:52Z</time>
      </trkpt>
      <trkpt lat="44.61693" lon="2.00141">
        <ele>308.24</ele>
        <time>2021-10-06T14:42:53Z</time>
      </trkpt>
      <trkpt lat="44.61693" lon="2.00143">
        <ele>308.24</ele>
        <time>2021-10-06T14:42:54Z</time>
      </trkpt>
      <trkpt lat="44.61693" lon="2.00145">
        <ele>308.24</ele>
        <time>2021-10-06T14:42:55Z</time>
      </trkpt>
      <trkpt lat="44.61692" lon="2.00147">
        <ele>308.24</ele>
        <time>2021-10-06T14:42:56Z</time>
      </trkpt>
      <trkpt lat="44.61692" lon="2.0015">
        <ele>308.24</ele>
        <time>2021-10-06T14:42:57Z</time>
      </trkpt>
      <trkpt lat="44.61691" lon="2.00153">
        <ele>308.24</ele>
        <time>2021-10-06T14:42:58Z</time>
      </trkpt>
      <trkpt lat="44.6169" lon="2.00156">
        <ele>308.24</ele>
        <time>2021-10-06T14:42:59Z</time>
      </trkpt>
      <trkpt lat="44.61688" lon="2.00158">
        <ele>308.24</ele>
        <time>2021-10-06T14:43:00Z</time>
      </trkpt>
      <trkpt lat="44.61686" lon="2.00161">
        <ele>308.24</ele>
        <time>2021-10-06T14:43:01Z</time>
      </trkpt>
      <trkpt lat="44.61685" lon="2.00164">
        <ele>308.24</ele>
        <time>2021-10-06T14:43:02Z</time>
      </trkpt>
      <trkpt lat="44.6167" lon="2.00188">
        <ele>307.28</ele>
        <time>2021-10-06T14:43:11Z</time>
      </trkpt>
      <trkpt lat="44.61669" lon="2.0019">
        <ele>307.28</ele>
        <time>2021-10-06T14:43:12Z</time>
      </trkpt>
      <trkpt lat="44.61667" lon="2.00192">
        <ele>307.28</ele>
        <time>2021-10-06T14:43:13Z</time>
      </trkpt>
      <trkpt lat="44.61665" lon="2.00195">
        <ele>307.28</ele>
        <time>2021-10-06T14:43:14Z</time>
      </trkpt>
      <trkpt lat="44.61664" lon="2.00198">
        <ele>306.8</ele>
        <time>2021-10-06T14:43:15Z</time>
      </trkpt>
      <trkpt lat="44.61662" lon="2.00201">
        <ele>306.8</ele>
        <time>2021-10-06T14:43:24Z</time>
      </trkpt>
      <trkpt lat="44.61661" lon="2.00204">
        <ele>306.8</ele>
        <time>2021-10-06T14:43:33Z</time>
      </trkpt>
      <trkpt lat="44.6166" lon="2.00206">
        <ele>306.8</ele>
        <time>2021-10-06T14:43:34Z</time>
      </trkpt>
      <trkpt lat="44.6166" lon="2.00208">
        <ele>306.8</ele>
        <time>2021-10-06T14:43:35Z</time>
      </trkpt>
      <trkpt lat="44.61659" lon="2.00211">
        <ele>306.8</ele>
        <time>2021-10-06T14:43:36Z</time>
      </trkpt>
      <trkpt lat="44.61659" lon="2.00214">
        <ele>306.8</ele>
        <time>2021-10-06T14:43:37Z</time>
      </trkpt>
      <trkpt lat="44.61658" lon="2.00216">
        <ele>306.8</ele>
        <time>2021-10-06T14:43:38Z</time>
      </trkpt>
      <trkpt lat="44.61657" lon="2.00218">
        <ele>306.8</ele>
        <time>2021-10-06T14:43:39Z</time>
      </trkpt>
      <trkpt lat="44.61656" lon="2.0022">
        <ele>306.8</ele>
        <time>2021-10-06T14:43:40Z</time>
      </trkpt>
      <trkpt lat="44.61655" lon="2.00221">
        <ele>306.8</ele>
        <time>2021-10-06T14:43:41Z</time>
      </trkpt>
      <trkpt lat="44.61654" lon="2.00222">
        <ele>306.8</ele>
        <time>2021-10-06T14:43:42Z</time>
      </trkpt>
      <trkpt lat="44.61652" lon="2.00223">
        <ele>306.8</ele>
        <time>2021-10-06T14:43:43Z</time>
      </trkpt>
      <trkpt lat="44.61638" lon="2.00241">
        <ele>305.84</ele>
        <time>2021-10-06T14:43:51Z</time>
      </trkpt>
      <trkpt lat="44.61635" lon="2.00241">
        <ele>305.36</ele>
        <time>2021-10-06T14:43:52Z</time>
      </trkpt>
      <trkpt lat="44.61631" lon="2.0024">
        <ele>305.36</ele>
        <time>2021-10-06T14:43:54Z</time>
      </trkpt>
      <trkpt lat="44.61622" lon="2.00232">
        <ele>304.39</ele>
        <time>2021-10-06T14:43:59Z</time>
      </trkpt>
      <trkpt lat="44.6161" lon="2.00234">
        <ele>302.47</ele>
        <time>2021-10-06T14:44:11Z</time>
      </trkpt>
      <trkpt lat="44.6161" lon="2.0023">
        <ele>301.99</ele>
        <time>2021-10-06T14:44:20Z</time>
      </trkpt>
      <trkpt lat="44.6161" lon="2.00221">
        <ele>301.99</ele>
        <time>2021-10-06T14:44:25Z</time>
      </trkpt>
      <trkpt lat="44.6161" lon="2.0021">
        <ele>301.51</ele>
        <time>2021-10-06T14:44:31Z</time>
      </trkpt>
      <trkpt lat="44.61613" lon="2.00167">
        <ele>300.55</ele>
        <time>2021-10-06T14:44:47Z</time>
      </trkpt>
      <trkpt lat="44.61624" lon="2.00107">
        <ele>298.15</ele>
        <time>2021-10-06T14:45:02Z</time>
      </trkpt>
      <trkpt lat="44.61634" lon="2.00049">
        <ele>296.7</ele>
        <time>2021-10-06T14:45:16Z</time>
      </trkpt>
      <trkpt lat="44.61647" lon="1.99988">
        <ele>295.26</ele>
        <time>2021-10-06T14:45:30Z</time>
      </trkpt>
      <trkpt lat="44.61648" lon="1.99982">
        <ele>294.78</ele>
        <time>2021-10-06T14:45:31Z</time>
      </trkpt>
      <trkpt lat="44.61651" lon="1.99965">
        <ele>294.3</ele>
        <time>2021-10-06T14:45:34Z</time>
      </trkpt>
      <trkpt lat="44.61652" lon="1.9996">
        <ele>294.3</ele>
        <time>2021-10-06T14:45:35Z</time>
      </trkpt>
      <trkpt lat="44.61656" lon="1.99941">
        <ele>292.86</ele>
        <time>2021-10-06T14:45:39Z</time>
      </trkpt>
      <trkpt lat="44.61659" lon="1.99938">
        <ele>292.86</ele>
        <time>2021-10-06T14:45:40Z</time>
      </trkpt>
      <trkpt lat="44.61678" lon="1.9992">
        <ele>294.3</ele>
        <time>2021-10-06T14:45:49Z</time>
      </trkpt>
      <trkpt lat="44.61687" lon="1.99898">
        <ele>294.78</ele>
        <time>2021-10-06T14:45:58Z</time>
      </trkpt>
      <trkpt lat="44.6168" lon="1.99882">
        <ele>293.34</ele>
        <time>2021-10-06T14:46:05Z</time>
      </trkpt>
      <trkpt lat="44.61675" lon="1.99884">
        <ele>291.9</ele>
        <time>2021-10-06T14:46:11Z</time>
      </trkpt>
      <trkpt lat="44.61677" lon="1.99884">
        <ele>291.42</ele>
        <time>2021-10-06T14:46:36Z</time>
      </trkpt>
      <trkpt lat="44.61671" lon="1.99881">
        <ele>291.42</ele>
        <time>2021-10-06T14:47:24Z</time>
      </trkpt>
      <trkpt lat="44.61671" lon="1.99882">
        <ele>291.42</ele>
        <time>2021-10-06T14:47:53Z</time>
      </trkpt>
      <trkpt lat="44.61673" lon="1.99884">
        <ele>290.94</ele>
        <time>2021-10-06T14:48:07Z</time>
      </trkpt>
      <trkpt lat="44.6167" lon="1.99883">
        <ele>290.94</ele>
        <time>2021-10-06T14:48:16Z</time>
      </trkpt>
      <trkpt lat="44.61666" lon="1.99885">
        <ele>290.94</ele>
        <time>2021-10-06T14:48:19Z</time>
      </trkpt>
      <trkpt lat="44.61664" lon="1.99887">
        <ele>290.94</ele>
        <time>2021-10-06T14:48:20Z</time>
      </trkpt>
      <trkpt lat="44.61662" lon="1.99889">
        <ele>290.94</ele>
        <time>2021-10-06T14:48:21Z</time>
      </trkpt>
      <trkpt lat="44.61642" lon="1.99923">
        <ele>290.46</ele>
        <time>2021-10-06T14:48:32Z</time>
      </trkpt>
      <trkpt lat="44.61611" lon="1.99964">
        <ele>289.49</ele>
        <time>2021-10-06T14:48:43Z</time>
      </trkpt>
      <trkpt lat="44.61607" lon="1.99969">
        <ele>289.49</ele>
        <time>2021-10-06T14:48:44Z</time>
      </trkpt>
      <trkpt lat="44.61565" lon="2.00043">
        <ele>289.49</ele>
        <time>2021-10-06T14:48:59Z</time>
      </trkpt>
      <trkpt lat="44.61563" lon="2.00046">
        <ele>289.49</ele>
        <time>2021-10-06T14:49:00Z</time>
      </trkpt>
      <trkpt lat="44.6156" lon="2.00048">
        <ele>289.49</ele>
        <time>2021-10-06T14:49:01Z</time>
      </trkpt>
      <trkpt lat="44.61556" lon="2.00047">
        <ele>289.49</ele>
        <time>2021-10-06T14:49:02Z</time>
      </trkpt>
      <trkpt lat="44.61552" lon="2.00045">
        <ele>289.49</ele>
        <time>2021-10-06T14:49:03Z</time>
      </trkpt>
      <trkpt lat="44.61543" lon="2.0004">
        <ele>289.01</ele>
        <time>2021-10-06T14:49:05Z</time>
      </trkpt>
      <trkpt lat="44.61532" lon="2.00035">
        <ele>288.05</ele>
        <time>2021-10-06T14:49:07Z</time>
      </trkpt>
      <trkpt lat="44.61495" lon="2.00024">
        <ele>284.21</ele>
        <time>2021-10-06T14:49:16Z</time>
      </trkpt>
      <trkpt lat="44.61494" lon="2.00028">
        <ele>284.21</ele>
        <time>2021-10-06T14:49:17Z</time>
      </trkpt>
      <trkpt lat="44.61487" lon="2.00081">
        <ele>285.65</ele>
        <time>2021-10-06T14:49:28Z</time>
      </trkpt>
      <trkpt lat="44.61496" lon="2.00137">
        <ele>288.53</ele>
        <time>2021-10-06T14:49:43Z</time>
      </trkpt>
      <trkpt lat="44.61505" lon="2.00208">
        <ele>291.9</ele>
        <time>2021-10-06T14:50:02Z</time>
      </trkpt>
      <trkpt lat="44.61512" lon="2.00255">
        <ele>295.26</ele>
        <time>2021-10-06T14:50:15Z</time>
      </trkpt>
      <trkpt lat="44.61519" lon="2.00313">
        <ele>298.15</ele>
        <time>2021-10-06T14:50:33Z</time>
      </trkpt>
      <trkpt lat="44.61527" lon="2.00369">
        <ele>300.07</ele>
        <time>2021-10-06T14:50:50Z</time>
      </trkpt>
      <trkpt lat="44.61532" lon="2.0041">
        <ele>301.51</ele>
        <time>2021-10-06T14:51:05Z</time>
      </trkpt>
      <trkpt lat="44.61533" lon="2.00424">
        <ele>301.51</ele>
        <time>2021-10-06T14:51:19Z</time>
      </trkpt>
      <trkpt lat="44.61532" lon="2.00435">
        <ele>301.51</ele>
        <time>2021-10-06T14:51:27Z</time>
      </trkpt>
      <trkpt lat="44.61535" lon="2.00469">
        <ele>301.51</ele>
        <time>2021-10-06T14:51:41Z</time>
      </trkpt>
      <trkpt lat="44.61536" lon="2.00518">
        <ele>301.51</ele>
        <time>2021-10-06T14:51:56Z</time>
      </trkpt>
      <trkpt lat="44.61532" lon="2.00594">
        <ele>300.07</ele>
        <time>2021-10-06T14:52:10Z</time>
      </trkpt>
      <trkpt lat="44.61531" lon="2.00599">
        <ele>300.07</ele>
        <time>2021-10-06T14:52:11Z</time>
      </trkpt>
      <trkpt lat="44.61518" lon="2.00666">
        <ele>300.07</ele>
        <time>2021-10-06T14:52:25Z</time>
      </trkpt>
      <trkpt lat="44.61509" lon="2.00697">
        <ele>300.07</ele>
        <time>2021-10-06T14:52:34Z</time>
      </trkpt>
      <trkpt lat="44.61505" lon="2.00738">
        <ele>299.59</ele>
        <time>2021-10-06T14:52:45Z</time>
      </trkpt>
      <trkpt lat="44.61504" lon="2.00777">
        <ele>298.63</ele>
        <time>2021-10-06T14:52:55Z</time>
      </trkpt>
      <trkpt lat="44.61504" lon="2.00797">
        <ele>298.63</ele>
        <time>2021-10-06T14:53:00Z</time>
      </trkpt>
    </trkseg>
  </trk>
</gpx>